PWSweather.com
Personal Weather Stations
Station Observations
KILASHKU1
Ashkum, IL

Ashkum, IL

Lat: 40.8779862, Lon: -87.846552

Elevation: 626

Station Type: Davis Vantage Pro 2

High Low Average
Temperature 20.0°F-6.7°C 7.0°F-13.9°C 11.9°F-11.2°C
Dew Point 10.2°F-12.1°C 2.3°F-16.5°C 5.6°F-14.7°C
Winds 7.0 mph 11.3 kmh Calm Calm 4.0 mph W6.4 kmh W
Wind Gusts 18.0 mph29.0 kmh -- 9.0 mph14.5 kmh
Humidity 83% 59% 76%
Pressure 30.60 in1036.2 mb 30.47 in1031.8 mb -
Precipitation 0.24 in6.1 mm - -
Hour Temp Dew Point Humidity Winds Wind Gusts Pressure Precip Precip Rate Daily Precip Total
12:00 AM 12.2°F-11.0°C 7.8°F-13.4°C 82% 4.0 mph NW6.4 kmh NW 10.0 mph16.1 kmh 30.47 in1031.8 mb 0.00 in0.0 mm 0.00 in0.0 mm 0.00 in0.0 mm
12:02 AM 12.2°F-11.0°C 7.8°F-13.4°C 82% 4.0 mph NW6.4 kmh NW 10.0 mph16.1 kmh 30.47 in1031.8 mb 0.00 in0.0 mm 0.00 in0.0 mm 0.00 in0.0 mm
12:04 AM 12.2°F-11.0°C 7.8°F-13.4°C 82% 4.0 mph NW6.4 kmh NW 10.0 mph16.1 kmh 30.47 in1031.8 mb 0.00 in0.0 mm 0.00 in0.0 mm 0.00 in0.0 mm
12:06 AM 12.1°F-11.1°C 7.7°F-13.5°C 82% 5.0 mph NW8.0 kmh NW 10.0 mph16.1 kmh 30.47 in1031.8 mb 0.00 in0.0 mm 0.00 in0.0 mm 0.00 in0.0 mm
12:08 AM 12.1°F-11.1°C 7.7°F-13.5°C 82% 5.0 mph NW8.0 kmh NW 10.0 mph16.1 kmh 30.47 in1031.8 mb 0.00 in0.0 mm 0.00 in0.0 mm 0.00 in0.0 mm
12:10 AM 12.2°F-11.0°C 7.8°F-13.4°C 82% 5.0 mph NW8.0 kmh NW 13.0 mph20.9 kmh 30.47 in1031.8 mb 0.00 in0.0 mm 0.00 in0.0 mm 0.00 in0.0 mm
12:12 AM 12.2°F-11.0°C 7.8°F-13.4°C 82% 5.0 mph NW8.0 kmh NW 13.0 mph20.9 kmh 30.47 in1031.8 mb 0.00 in0.0 mm 0.00 in0.0 mm 0.00 in0.0 mm
12:14 AM 12.2°F-11.0°C 7.8°F-13.4°C 82% 6.0 mph NW9.7 kmh NW 13.0 mph20.9 kmh 30.47 in1031.8 mb 0.00 in0.0 mm 0.00 in0.0 mm 0.00 in0.0 mm
12:16 AM 12.3°F-10.9°C 7.9°F-13.4°C 82% 6.0 mph NW9.7 kmh NW 13.0 mph20.9 kmh 30.47 in1031.8 mb 0.00 in0.0 mm 0.00 in0.0 mm 0.00 in0.0 mm
12:18 AM 12.3°F-10.9°C 7.6°F-13.6°C 81% 6.0 mph NW9.7 kmh NW 13.0 mph20.9 kmh 30.47 in1031.8 mb 0.00 in0.0 mm 0.00 in0.0 mm 0.00 in0.0 mm
12:20 AM 12.3°F-10.9°C 7.6°F-13.6°C 81% 7.0 mph NW11.3 kmh NW 14.0 mph22.5 kmh 30.47 in1031.8 mb 0.00 in0.0 mm 0.00 in0.0 mm 0.00 in0.0 mm
12:22 AM 12.4°F-10.9°C 7.7°F-13.5°C 81% 6.0 mph NW9.7 kmh NW 14.0 mph22.5 kmh 30.47 in1031.8 mb 0.00 in0.0 mm 0.00 in0.0 mm 0.00 in0.0 mm
12:24 AM 12.4°F-10.9°C 7.7°F-13.5°C 81% 6.0 mph NW9.7 kmh NW 14.0 mph22.5 kmh 30.47 in1031.8 mb 0.00 in0.0 mm 0.00 in0.0 mm 0.00 in0.0 mm
12:26 AM 12.4°F-10.9°C 7.4°F-13.7°C 80% 6.0 mph NW9.7 kmh NW 14.0 mph22.5 kmh 30.47 in1031.8 mb 0.00 in0.0 mm 0.00 in0.0 mm 0.00 in0.0 mm
12:28 AM 12.4°F-10.9°C 7.4°F-13.7°C 80% 6.0 mph NW9.7 kmh NW 14.0 mph22.5 kmh 30.47 in1031.8 mb 0.00 in0.0 mm 0.00 in0.0 mm 0.00 in0.0 mm
12:30 AM 12.4°F-10.9°C 7.4°F-13.7°C 80% 6.0 mph NW9.7 kmh NW 12.0 mph19.3 kmh 30.47 in1031.8 mb 0.00 in0.0 mm 0.00 in0.0 mm 0.00 in0.0 mm
12:32 AM 12.4°F-10.9°C 7.4°F-13.7°C 80% 7.0 mph NW11.3 kmh NW 12.0 mph19.3 kmh 30.47 in1031.8 mb 0.00 in0.0 mm 0.00 in0.0 mm 0.00 in0.0 mm
12:34 AM 12.5°F-10.8°C 7.5°F-13.6°C 80% 7.0 mph NW11.3 kmh NW 12.0 mph19.3 kmh 30.47 in1031.8 mb 0.00 in0.0 mm 0.00 in0.0 mm 0.00 in0.0 mm
12:36 AM 12.4°F-10.9°C 7.1°F-13.8°C 79% 7.0 mph NW11.3 kmh NW 12.0 mph19.3 kmh 30.47 in1031.8 mb 0.00 in0.0 mm 0.00 in0.0 mm 0.00 in0.0 mm
12:38 AM 12.4°F-10.9°C 7.1°F-13.8°C 79% 6.0 mph NW9.7 kmh NW 12.0 mph19.3 kmh 30.47 in1031.8 mb 0.00 in0.0 mm 0.00 in0.0 mm 0.00 in0.0 mm
12:40 AM 12.3°F-10.9°C 7.0°F-13.9°C 79% 6.0 mph NW9.7 kmh NW 12.0 mph19.3 kmh 30.47 in1031.8 mb 0.00 in0.0 mm 0.00 in0.0 mm 0.00 in0.0 mm
12:42 AM 12.3°F-10.9°C 7.0°F-13.9°C 79% 6.0 mph NW9.7 kmh NW 12.0 mph19.3 kmh 30.47 in1031.8 mb 0.00 in0.0 mm 0.00 in0.0 mm 0.00 in0.0 mm
12:44 AM 12.3°F-10.9°C 7.0°F-13.9°C 79% 6.0 mph NW9.7 kmh NW 12.0 mph19.3 kmh 30.47 in1031.8 mb 0.00 in0.0 mm 0.00 in0.0 mm 0.00 in0.0 mm
12:46 AM 12.2°F-11.0°C 6.9°F-13.9°C 79% 6.0 mph NW9.7 kmh NW 13.0 mph20.9 kmh 30.47 in1031.8 mb 0.00 in0.0 mm 0.00 in0.0 mm 0.00 in0.0 mm
12:48 AM 12.2°F-11.0°C 6.9°F-13.9°C 79% 6.0 mph NW9.7 kmh NW 13.0 mph20.9 kmh 30.47 in1031.8 mb 0.00 in0.0 mm 0.00 in0.0 mm 0.00 in0.0 mm
12:50 AM 12.2°F-11.0°C 6.9°F-13.9°C 79% 7.0 mph NW11.3 kmh NW 13.0 mph20.9 kmh 30.47 in1031.8 mb 0.00 in0.0 mm 0.00 in0.0 mm 0.00 in0.0 mm
12:52 AM 12.2°F-11.0°C 6.9°F-13.9°C 79% 7.0 mph NW11.3 kmh NW 13.0 mph20.9 kmh 30.47 in1031.8 mb 0.00 in0.0 mm 0.00 in0.0 mm 0.00 in0.0 mm
12:54 AM 12.2°F-11.0°C 6.9°F-13.9°C 79% 7.0 mph NW11.3 kmh NW 13.0 mph20.9 kmh 30.47 in1031.8 mb 0.00 in0.0 mm 0.00 in0.0 mm 0.00 in0.0 mm
12:56 AM 12.2°F-11.0°C 6.9°F-13.9°C 79% 7.0 mph NW11.3 kmh NW 15.0 mph24.1 kmh 30.47 in1031.8 mb 0.00 in0.0 mm 0.00 in0.0 mm 0.00 in0.0 mm
12:58 AM 12.2°F-11.0°C 6.9°F-13.9°C 79% 7.0 mph NW11.3 kmh NW 15.0 mph24.1 kmh 30.47 in1031.8 mb 0.00 in0.0 mm 0.00 in0.0 mm 0.00 in0.0 mm
01:00 AM 12.2°F-11.0°C 6.9°F-13.9°C 79% 7.0 mph NW11.3 kmh NW 15.0 mph24.1 kmh 30.47 in1031.8 mb 0.00 in0.0 mm 0.00 in0.0 mm 0.00 in0.0 mm
01:02 AM 12.2°F-11.0°C 6.9°F-13.9°C 79% 7.0 mph NW11.3 kmh NW 15.0 mph24.1 kmh 30.47 in1031.8 mb 0.00 in0.0 mm 0.00 in0.0 mm 0.00 in0.0 mm
01:04 AM 12.2°F-11.0°C 6.9°F-13.9°C 79% 7.0 mph NW11.3 kmh NW 15.0 mph24.1 kmh 30.48 in1032.2 mb 0.00 in0.0 mm 0.00 in0.0 mm 0.00 in0.0 mm
01:06 AM 12.2°F-11.0°C 6.9°F-13.9°C 79% 7.0 mph NW11.3 kmh NW 15.0 mph24.1 kmh 30.47 in1031.8 mb 0.00 in0.0 mm 0.00 in0.0 mm 0.00 in0.0 mm
01:08 AM 12.2°F-11.0°C 6.9°F-13.9°C 79% 7.0 mph NW11.3 kmh NW 15.0 mph24.1 kmh 30.48 in1032.2 mb 0.00 in0.0 mm 0.00 in0.0 mm 0.00 in0.0 mm
01:10 AM 12.2°F-11.0°C 6.7°F-14.1°C 78% 7.0 mph NW11.3 kmh NW 14.0 mph22.5 kmh 30.48 in1032.2 mb 0.00 in0.0 mm 0.00 in0.0 mm 0.00 in0.0 mm
01:12 AM 12.2°F-11.0°C 6.7°F-14.1°C 78% 7.0 mph NW11.3 kmh NW 14.0 mph22.5 kmh 30.48 in1032.2 mb 0.00 in0.0 mm 0.00 in0.0 mm 0.00 in0.0 mm
01:14 AM 12.1°F-11.1°C 6.6°F-14.1°C 78% 7.0 mph NW11.3 kmh NW 14.0 mph22.5 kmh 30.48 in1032.2 mb 0.00 in0.0 mm 0.00 in0.0 mm 0.00 in0.0 mm
01:16 AM 12.1°F-11.1°C 6.6°F-14.1°C 78% 7.0 mph NW11.3 kmh NW 13.0 mph20.9 kmh 30.48 in1032.2 mb 0.00 in0.0 mm 0.00 in0.0 mm 0.00 in0.0 mm
01:18 AM 12.1°F-11.1°C 6.6°F-14.1°C 78% 7.0 mph NW11.3 kmh NW 13.0 mph20.9 kmh 30.48 in1032.2 mb 0.00 in0.0 mm 0.00 in0.0 mm 0.00 in0.0 mm
01:20 AM 12.1°F-11.1°C 6.6°F-14.1°C 78% 7.0 mph NW11.3 kmh NW 13.0 mph20.9 kmh 30.48 in1032.2 mb 0.00 in0.0 mm 0.00 in0.0 mm 0.00 in0.0 mm
01:22 AM 12.1°F-11.1°C 6.6°F-14.1°C 78% 7.0 mph NW11.3 kmh NW 13.0 mph20.9 kmh 30.48 in1032.2 mb 0.00 in0.0 mm 0.00 in0.0 mm 0.00 in0.0 mm
01:24 AM 12.0°F-11.1°C 6.5°F-14.2°C 78% 7.0 mph NW11.3 kmh NW 13.0 mph20.9 kmh 30.48 in1032.2 mb 0.00 in0.0 mm 0.00 in0.0 mm 0.00 in0.0 mm
01:26 AM 11.9°F-11.2°C 6.4°F-14.2°C 78% 6.0 mph NW9.7 kmh NW 13.0 mph20.9 kmh 30.48 in1032.2 mb 0.00 in0.0 mm 0.00 in0.0 mm 0.00 in0.0 mm
01:28 AM 11.9°F-11.2°C 6.4°F-14.2°C 78% 6.0 mph NW9.7 kmh NW 13.0 mph20.9 kmh 30.48 in1032.2 mb 0.00 in0.0 mm 0.00 in0.0 mm 0.00 in0.0 mm
01:30 AM 11.8°F-11.2°C 6.3°F-14.3°C 78% 6.0 mph NW9.7 kmh NW 12.0 mph19.3 kmh 30.48 in1032.2 mb 0.00 in0.0 mm 0.00 in0.0 mm 0.00 in0.0 mm
01:32 AM 11.8°F-11.2°C 6.3°F-14.3°C 78% 5.0 mph NW8.0 kmh NW 11.0 mph17.7 kmh 30.48 in1032.2 mb 0.00 in0.0 mm 0.00 in0.0 mm 0.00 in0.0 mm
01:34 AM 11.8°F-11.2°C 6.3°F-14.3°C 78% 5.0 mph NW8.0 kmh NW 11.0 mph17.7 kmh 30.48 in1032.2 mb 0.00 in0.0 mm 0.00 in0.0 mm 0.00 in0.0 mm
01:36 AM 11.7°F-11.3°C 6.2°F-14.3°C 78% 5.0 mph NW8.0 kmh NW 11.0 mph17.7 kmh 30.48 in1032.2 mb 0.00 in0.0 mm 0.00 in0.0 mm 0.00 in0.0 mm
01:38 AM 11.7°F-11.3°C 6.2°F-14.3°C 78% 5.0 mph NW8.0 kmh NW 11.0 mph17.7 kmh 30.48 in1032.2 mb 0.00 in0.0 mm 0.00 in0.0 mm 0.00 in0.0 mm
01:40 AM 11.6°F-11.3°C 6.3°F-14.3°C 79% 5.0 mph NW8.0 kmh NW 11.0 mph17.7 kmh 30.48 in1032.2 mb 0.00 in0.0 mm 0.00 in0.0 mm 0.00 in0.0 mm
01:42 AM 11.6°F-11.3°C 6.3°F-14.3°C 79% 6.0 mph NW9.7 kmh NW 11.0 mph17.7 kmh 30.48 in1032.2 mb 0.00 in0.0 mm 0.00 in0.0 mm 0.00 in0.0 mm
01:44 AM 11.6°F-11.3°C 6.3°F-14.3°C 79% 6.0 mph NW9.7 kmh NW 11.0 mph17.7 kmh 30.48 in1032.2 mb 0.00 in0.0 mm 0.00 in0.0 mm 0.00 in0.0 mm
01:46 AM 11.5°F-11.4°C 6.2°F-14.3°C 79% 6.0 mph NW9.7 kmh NW 12.0 mph19.3 kmh 30.48 in1032.2 mb 0.00 in0.0 mm 0.00 in0.0 mm 0.00 in0.0 mm
01:48 AM 11.5°F-11.4°C 6.2°F-14.3°C 79% 6.0 mph NW9.7 kmh NW 12.0 mph19.3 kmh 30.48 in1032.2 mb 0.00 in0.0 mm 0.00 in0.0 mm 0.00 in0.0 mm
01:50 AM 11.5°F-11.4°C 6.2°F-14.3°C 79% 7.0 mph NW11.3 kmh NW 12.0 mph19.3 kmh 30.49 in1032.5 mb 0.00 in0.0 mm 0.00 in0.0 mm 0.00 in0.0 mm
01:52 AM 11.5°F-11.4°C 6.2°F-14.3°C 79% 7.0 mph NW11.3 kmh NW 12.0 mph19.3 kmh 30.48 in1032.2 mb 0.00 in0.0 mm 0.00 in0.0 mm 0.00 in0.0 mm
01:54 AM 11.5°F-11.4°C 6.2°F-14.3°C 79% 7.0 mph NW11.3 kmh NW 12.0 mph19.3 kmh 30.49 in1032.5 mb 0.00 in0.0 mm 0.00 in0.0 mm 0.00 in0.0 mm
01:56 AM 11.5°F-11.4°C 6.5°F-14.2°C 80% 7.0 mph NW11.3 kmh NW 12.0 mph19.3 kmh 30.49 in1032.5 mb 0.00 in0.0 mm 0.00 in0.0 mm 0.00 in0.0 mm
01:58 AM 11.5°F-11.4°C 6.5°F-14.2°C 80% 6.0 mph NW9.7 kmh NW 13.0 mph20.9 kmh 30.48 in1032.2 mb 0.00 in0.0 mm 0.00 in0.0 mm 0.00 in0.0 mm
02:00 AM 11.5°F-11.4°C 6.5°F-14.2°C 80% 6.0 mph NW9.7 kmh NW 14.0 mph22.5 kmh 30.48 in1032.2 mb 0.00 in0.0 mm 0.00 in0.0 mm 0.00 in0.0 mm
02:02 AM 11.5°F-11.4°C 6.2°F-14.3°C 79% 6.0 mph NW9.7 kmh NW 17.0 mph27.4 kmh 30.49 in1032.5 mb 0.00 in0.0 mm 0.00 in0.0 mm 0.00 in0.0 mm
02:04 AM 11.6°F-11.3°C 6.3°F-14.3°C 79% 7.0 mph NW11.3 kmh NW 17.0 mph27.4 kmh 30.49 in1032.5 mb 0.00 in0.0 mm 0.00 in0.0 mm 0.00 in0.0 mm
02:06 AM 11.6°F-11.3°C 6.3°F-14.3°C 79% 7.0 mph NW11.3 kmh NW 17.0 mph27.4 kmh 30.49 in1032.5 mb 0.00 in0.0 mm 0.00 in0.0 mm 0.00 in0.0 mm
02:08 AM 11.5°F-11.4°C 6.2°F-14.3°C 79% 7.0 mph NW11.3 kmh NW 17.0 mph27.4 kmh 30.49 in1032.5 mb 0.00 in0.0 mm 0.00 in0.0 mm 0.00 in0.0 mm
02:10 AM 11.5°F-11.4°C 6.5°F-14.2°C 80% 7.0 mph NW11.3 kmh NW 17.0 mph27.4 kmh 30.49 in1032.5 mb 0.00 in0.0 mm 0.00 in0.0 mm 0.00 in0.0 mm
02:12 AM 11.5°F-11.4°C 6.5°F-14.2°C 80% 7.0 mph NW11.3 kmh NW 13.0 mph20.9 kmh 30.49 in1032.5 mb 0.00 in0.0 mm 0.00 in0.0 mm 0.00 in0.0 mm
02:14 AM 11.4°F-11.4°C 6.2°F-14.3°C 79% 7.0 mph NW11.3 kmh NW 18.0 mph29.0 kmh 30.49 in1032.5 mb 0.00 in0.0 mm 0.00 in0.0 mm 0.00 in0.0 mm
02:16 AM 11.4°F-11.4°C 6.2°F-14.3°C 79% 7.0 mph NW11.3 kmh NW 18.0 mph29.0 kmh 30.49 in1032.5 mb 0.00 in0.0 mm 0.00 in0.0 mm 0.00 in0.0 mm
02:18 AM 11.5°F-11.4°C 6.2°F-14.3°C 79% 7.0 mph NW11.3 kmh NW 18.0 mph29.0 kmh 30.49 in1032.5 mb 0.00 in0.0 mm 0.00 in0.0 mm 0.00 in0.0 mm
02:20 AM 11.4°F-11.4°C 6.4°F-14.2°C 80% 7.0 mph NW11.3 kmh NW 18.0 mph29.0 kmh 30.49 in1032.5 mb 0.00 in0.0 mm 0.00 in0.0 mm 0.00 in0.0 mm
02:22 AM 11.4°F-11.4°C 6.4°F-14.2°C 80% 7.0 mph NW11.3 kmh NW 18.0 mph29.0 kmh 30.49 in1032.5 mb 0.00 in0.0 mm 0.00 in0.0 mm 0.00 in0.0 mm
02:24 AM 11.4°F-11.4°C 6.4°F-14.2°C 80% 7.0 mph NW11.3 kmh NW 16.0 mph25.7 kmh 30.49 in1032.5 mb 0.00 in0.0 mm 0.00 in0.0 mm 0.00 in0.0 mm
02:26 AM 11.4°F-11.4°C 6.4°F-14.2°C 80% 7.0 mph NW11.3 kmh NW 16.0 mph25.7 kmh 30.49 in1032.5 mb 0.00 in0.0 mm 0.00 in0.0 mm 0.00 in0.0 mm
02:28 AM 11.3°F-11.5°C 6.3°F-14.3°C 80% 7.0 mph NW11.3 kmh NW 16.0 mph25.7 kmh 30.49 in1032.5 mb 0.00 in0.0 mm 0.00 in0.0 mm 0.00 in0.0 mm
02:30 AM 11.3°F-11.5°C 6.3°F-14.3°C 80% 7.0 mph NW11.3 kmh NW 16.0 mph25.7 kmh 30.49 in1032.5 mb 0.00 in0.0 mm 0.00 in0.0 mm 0.00 in0.0 mm
02:32 AM 11.2°F-11.6°C 6.2°F-14.3°C 80% 6.0 mph NW9.7 kmh NW 15.0 mph24.1 kmh 30.49 in1032.5 mb 0.00 in0.0 mm 0.00 in0.0 mm 0.00 in0.0 mm
02:34 AM 11.2°F-11.6°C 6.2°F-14.3°C 80% 6.0 mph NW9.7 kmh NW 15.0 mph24.1 kmh 30.49 in1032.5 mb 0.00 in0.0 mm 0.00 in0.0 mm 0.00 in0.0 mm
02:36 AM 11.2°F-11.6°C 6.2°F-14.3°C 80% 6.0 mph NW9.7 kmh NW 15.0 mph24.1 kmh 30.49 in1032.5 mb 0.00 in0.0 mm 0.00 in0.0 mm 0.00 in0.0 mm
02:38 AM 11.2°F-11.6°C 6.2°F-14.3°C 80% 6.0 mph NW9.7 kmh NW 13.0 mph20.9 kmh 30.49 in1032.5 mb 0.00 in0.0 mm 0.00 in0.0 mm 0.00 in0.0 mm
02:40 AM 11.2°F-11.6°C 6.2°F-14.3°C 80% 6.0 mph NW9.7 kmh NW 13.0 mph20.9 kmh 30.49 in1032.5 mb 0.00 in0.0 mm 0.00 in0.0 mm 0.00 in0.0 mm
02:42 AM 11.2°F-11.6°C 6.2°F-14.3°C 80% 6.0 mph NW9.7 kmh NW 13.0 mph20.9 kmh 30.49 in1032.5 mb 0.00 in0.0 mm 0.00 in0.0 mm 0.00 in0.0 mm
02:44 AM 11.2°F-11.6°C 6.2°F-14.3°C 80% 6.0 mph NW9.7 kmh NW 13.0 mph20.9 kmh 30.49 in1032.5 mb 0.00 in0.0 mm 0.00 in0.0 mm 0.00 in0.0 mm
02:46 AM 11.2°F-11.6°C 6.2°F-14.3°C 80% 6.0 mph NW9.7 kmh NW 13.0 mph20.9 kmh 30.49 in1032.5 mb 0.00 in0.0 mm 0.00 in0.0 mm 0.00 in0.0 mm
02:48 AM 11.2°F-11.6°C 6.2°F-14.3°C 80% 6.0 mph NW9.7 kmh NW 13.0 mph20.9 kmh 30.49 in1032.5 mb 0.00 in0.0 mm 0.00 in0.0 mm 0.00 in0.0 mm
02:50 AM 11.2°F-11.6°C 6.2°F-14.3°C 80% 6.0 mph NW9.7 kmh NW 13.0 mph20.9 kmh 30.50 in1032.8 mb 0.00 in0.0 mm 0.00 in0.0 mm 0.00 in0.0 mm
02:52 AM 11.2°F-11.6°C 6.2°F-14.3°C 80% 6.0 mph NW9.7 kmh NW 13.0 mph20.9 kmh 30.50 in1032.8 mb 0.00 in0.0 mm 0.00 in0.0 mm 0.00 in0.0 mm
02:54 AM 11.2°F-11.6°C 6.2°F-14.3°C 80% 6.0 mph NW9.7 kmh NW 13.0 mph20.9 kmh 30.49 in1032.5 mb 0.00 in0.0 mm 0.00 in0.0 mm 0.00 in0.0 mm
02:56 AM 11.2°F-11.6°C 6.2°F-14.3°C 80% 6.0 mph NW9.7 kmh NW 13.0 mph20.9 kmh 30.49 in1032.5 mb 0.00 in0.0 mm 0.00 in0.0 mm 0.00 in0.0 mm
02:58 AM 11.2°F-11.6°C 6.2°F-14.3°C 80% 6.0 mph NW9.7 kmh NW 13.0 mph20.9 kmh 30.49 in1032.5 mb 0.00 in0.0 mm 0.00 in0.0 mm 0.00 in0.0 mm
03:00 AM 10.8°F-11.8°C 6.1°F-14.4°C 81% 6.0 mph NW9.7 kmh NW 13.0 mph20.9 kmh 30.49 in1032.5 mb 0.00 in0.0 mm 0.00 in0.0 mm 0.00 in0.0 mm
03:02 AM 10.7°F-11.8°C 6.0°F-14.4°C 81% 6.0 mph NW9.7 kmh NW 13.0 mph20.9 kmh 30.49 in1032.5 mb 0.00 in0.0 mm 0.00 in0.0 mm 0.00 in0.0 mm
03:04 AM 10.7°F-11.8°C 6.3°F-14.3°C 82% 6.0 mph NW9.7 kmh NW 13.0 mph20.9 kmh 30.49 in1032.5 mb 0.00 in0.0 mm 0.00 in0.0 mm 0.00 in0.0 mm
03:06 AM 10.6°F-11.9°C 6.2°F-14.3°C 82% 6.0 mph NW9.7 kmh NW 10.0 mph16.1 kmh 30.49 in1032.5 mb 0.00 in0.0 mm 0.00 in0.0 mm 0.00 in0.0 mm
03:08 AM 10.6°F-11.9°C 6.2°F-14.3°C 82% 7.0 mph NW11.3 kmh NW 12.0 mph19.3 kmh 30.49 in1032.5 mb 0.00 in0.0 mm 0.00 in0.0 mm 0.00 in0.0 mm
03:10 AM 10.6°F-11.9°C 6.2°F-14.3°C 82% 7.0 mph NW11.3 kmh NW 12.0 mph19.3 kmh 30.49 in1032.5 mb 0.00 in0.0 mm 0.00 in0.0 mm 0.00 in0.0 mm
03:12 AM 10.6°F-11.9°C 6.2°F-14.3°C 82% 7.0 mph NW11.3 kmh NW 14.0 mph22.5 kmh 30.49 in1032.5 mb 0.00 in0.0 mm 0.00 in0.0 mm 0.00 in0.0 mm
03:14 AM 10.5°F-11.9°C 6.1°F-14.4°C 82% 7.0 mph NW11.3 kmh NW 14.0 mph22.5 kmh 30.49 in1032.5 mb 0.00 in0.0 mm 0.00 in0.0 mm 0.00 in0.0 mm
03:16 AM 10.5°F-11.9°C 6.1°F-14.4°C 82% 7.0 mph NW11.3 kmh NW 15.0 mph24.1 kmh 30.49 in1032.5 mb 0.00 in0.0 mm 0.00 in0.0 mm 0.00 in0.0 mm
03:18 AM 10.5°F-11.9°C 6.1°F-14.4°C 82% 7.0 mph NW11.3 kmh NW 15.0 mph24.1 kmh 30.49 in1032.5 mb 0.00 in0.0 mm 0.00 in0.0 mm 0.00 in0.0 mm
03:20 AM 10.4°F-12.0°C 6.0°F-14.4°C 82% 7.0 mph NW11.3 kmh NW 15.0 mph24.1 kmh 30.49 in1032.5 mb 0.00 in0.0 mm 0.00 in0.0 mm 0.00 in0.0 mm
03:22 AM 10.4°F-12.0°C 6.0°F-14.4°C 82% 7.0 mph NW11.3 kmh NW 15.0 mph24.1 kmh 30.49 in1032.5 mb 0.00 in0.0 mm 0.00 in0.0 mm 0.00 in0.0 mm
03:24 AM 10.4°F-12.0°C 6.0°F-14.4°C 82% 7.0 mph NW11.3 kmh NW 15.0 mph24.1 kmh 30.50 in1032.8 mb 0.00 in0.0 mm 0.00 in0.0 mm 0.00 in0.0 mm
03:26 AM 10.4°F-12.0°C 6.0°F-14.4°C 82% 6.0 mph NW9.7 kmh NW 15.0 mph24.1 kmh 30.50 in1032.8 mb 0.00 in0.0 mm 0.00 in0.0 mm 0.00 in0.0 mm
03:28 AM 10.3°F-12.1°C 5.9°F-14.5°C 82% 6.0 mph NW9.7 kmh NW 15.0 mph24.1 kmh 30.50 in1032.8 mb 0.00 in0.0 mm 0.00 in0.0 mm 0.00 in0.0 mm
03:30 AM 10.3°F-12.1°C 5.9°F-14.5°C 82% 6.0 mph NW9.7 kmh NW 15.0 mph24.1 kmh 30.50 in1032.8 mb 0.00 in0.0 mm 0.00 in0.0 mm 0.00 in0.0 mm
03:32 AM 10.2°F-12.1°C 5.8°F-14.6°C 82% 6.0 mph NW9.7 kmh NW 13.0 mph20.9 kmh 30.50 in1032.8 mb 0.00 in0.0 mm 0.00 in0.0 mm 0.00 in0.0 mm
03:34 AM 10.2°F-12.1°C 5.8°F-14.6°C 82% 6.0 mph NW9.7 kmh NW 13.0 mph20.9 kmh 30.50 in1032.8 mb 0.00 in0.0 mm 0.00 in0.0 mm 0.00 in0.0 mm
03:36 AM 10.1°F-12.2°C 5.7°F-14.6°C 82% 6.0 mph NW9.7 kmh NW 13.0 mph20.9 kmh 30.50 in1032.8 mb 0.00 in0.0 mm 0.00 in0.0 mm 0.00 in0.0 mm
03:38 AM 10.1°F-12.2°C 5.7°F-14.6°C 82% 6.0 mph NW9.7 kmh NW 13.0 mph20.9 kmh 30.50 in1032.8 mb 0.00 in0.0 mm 0.00 in0.0 mm 0.00 in0.0 mm
03:40 AM 10.1°F-12.2°C 5.7°F-14.6°C 82% 6.0 mph NW9.7 kmh NW 12.0 mph19.3 kmh 30.50 in1032.8 mb 0.00 in0.0 mm 0.00 in0.0 mm 0.00 in0.0 mm
03:42 AM 10.0°F-12.2°C 5.6°F-14.7°C 82% 6.0 mph NW9.7 kmh NW 12.0 mph19.3 kmh 30.50 in1032.8 mb 0.00 in0.0 mm 0.00 in0.0 mm 0.00 in0.0 mm
03:44 AM 10.0°F-12.2°C 5.6°F-14.7°C 82% 6.0 mph NW9.7 kmh NW 12.0 mph19.3 kmh 30.51 in1033.2 mb 0.00 in0.0 mm 0.00 in0.0 mm 0.00 in0.0 mm
03:46 AM 10.0°F-12.2°C 5.6°F-14.7°C 82% 6.0 mph NW9.7 kmh NW 12.0 mph19.3 kmh 30.50 in1032.8 mb 0.00 in0.0 mm 0.00 in0.0 mm 0.00 in0.0 mm
03:48 AM 10.0°F-12.2°C 5.6°F-14.7°C 82% 6.0 mph NW9.7 kmh NW 12.0 mph19.3 kmh 30.51 in1033.2 mb 0.00 in0.0 mm 0.00 in0.0 mm 0.00 in0.0 mm
03:50 AM 9.9°F-12.3°C 5.5°F-14.7°C 82% 6.0 mph NW9.7 kmh NW 11.0 mph17.7 kmh 30.51 in1033.2 mb 0.00 in0.0 mm 0.00 in0.0 mm 0.00 in0.0 mm
03:52 AM 9.9°F-12.3°C 5.5°F-14.7°C 82% 6.0 mph NW9.7 kmh NW 12.0 mph19.3 kmh 30.51 in1033.2 mb 0.00 in0.0 mm 0.00 in0.0 mm 0.00 in0.0 mm
03:54 AM 9.9°F-12.3°C 5.5°F-14.7°C 82% 7.0 mph NW11.3 kmh NW 12.0 mph19.3 kmh 30.51 in1033.2 mb 0.00 in0.0 mm 0.00 in0.0 mm 0.00 in0.0 mm
03:56 AM 9.9°F-12.3°C 5.5°F-14.7°C 82% 7.0 mph NW11.3 kmh NW 12.0 mph19.3 kmh 30.51 in1033.2 mb 0.00 in0.0 mm 0.00 in0.0 mm 0.00 in0.0 mm
03:58 AM 9.8°F-12.3°C 5.4°F-14.8°C 82% 7.0 mph NW11.3 kmh NW 12.0 mph19.3 kmh 30.51 in1033.2 mb 0.00 in0.0 mm 0.00 in0.0 mm 0.00 in0.0 mm
04:00 AM 9.9°F-12.3°C 5.5°F-14.7°C 82% 6.0 mph NW9.7 kmh NW 12.0 mph19.3 kmh 30.51 in1033.2 mb 0.00 in0.0 mm 0.00 in0.0 mm 0.00 in0.0 mm
04:02 AM 9.9°F-12.3°C 5.5°F-14.7°C 82% 6.0 mph NW9.7 kmh NW 12.0 mph19.3 kmh 30.51 in1033.2 mb 0.00 in0.0 mm 0.00 in0.0 mm 0.00 in0.0 mm
04:04 AM 9.8°F-12.3°C 5.4°F-14.8°C 82% 6.0 mph NW9.7 kmh NW 12.0 mph19.3 kmh 30.51 in1033.2 mb 0.00 in0.0 mm 0.00 in0.0 mm 0.00 in0.0 mm
04:06 AM 9.8°F-12.3°C 5.4°F-14.8°C 82% 6.0 mph NW9.7 kmh NW 11.0 mph17.7 kmh 30.52 in1033.5 mb 0.00 in0.0 mm 0.00 in0.0 mm 0.00 in0.0 mm
04:08 AM 9.7°F-12.4°C 5.3°F-14.8°C 82% 6.0 mph NW9.7 kmh NW 14.0 mph22.5 kmh 30.52 in1033.5 mb 0.00 in0.0 mm 0.00 in0.0 mm 0.00 in0.0 mm
04:10 AM 9.7°F-12.4°C 5.3°F-14.8°C 82% 6.0 mph NW9.7 kmh NW 14.0 mph22.5 kmh 30.52 in1033.5 mb 0.00 in0.0 mm 0.00 in0.0 mm 0.00 in0.0 mm
04:12 AM 9.6°F-12.4°C 5.2°F-14.9°C 82% 6.0 mph NW9.7 kmh NW 14.0 mph22.5 kmh 30.52 in1033.5 mb 0.00 in0.0 mm 0.00 in0.0 mm 0.00 in0.0 mm
04:14 AM 9.6°F-12.4°C 5.2°F-14.9°C 82% 6.0 mph NW9.7 kmh NW 14.0 mph22.5 kmh 30.52 in1033.5 mb 0.00 in0.0 mm 0.00 in0.0 mm 0.00 in0.0 mm
04:16 AM 9.6°F-12.4°C 5.2°F-14.9°C 82% 6.0 mph NW9.7 kmh NW 14.0 mph22.5 kmh 30.52 in1033.5 mb 0.00 in0.0 mm 0.00 in0.0 mm 0.00 in0.0 mm
04:18 AM 9.6°F-12.4°C 5.2°F-14.9°C 82% 6.0 mph NW9.7 kmh NW 14.0 mph22.5 kmh 30.52 in1033.5 mb 0.00 in0.0 mm 0.00 in0.0 mm 0.00 in0.0 mm
04:20 AM 9.5°F-12.5°C 5.1°F-14.9°C 82% 6.0 mph NW9.7 kmh NW 14.0 mph22.5 kmh 30.52 in1033.5 mb 0.00 in0.0 mm 0.00 in0.0 mm 0.00 in0.0 mm
04:22 AM 9.6°F-12.4°C 5.2°F-14.9°C 82% 6.0 mph NW9.7 kmh NW 14.0 mph22.5 kmh 30.52 in1033.5 mb 0.00 in0.0 mm 0.00 in0.0 mm 0.00 in0.0 mm
04:24 AM 9.5°F-12.5°C 5.1°F-14.9°C 82% 6.0 mph NW9.7 kmh NW 14.0 mph22.5 kmh 30.52 in1033.5 mb 0.00 in0.0 mm 0.00 in0.0 mm 0.00 in0.0 mm
04:26 AM 9.5°F-12.5°C 5.1°F-14.9°C 82% 6.0 mph NW9.7 kmh NW 14.0 mph22.5 kmh 30.52 in1033.5 mb 0.00 in0.0 mm 0.00 in0.0 mm 0.00 in0.0 mm
04:28 AM 9.4°F-12.6°C 5.0°F-15.0°C 82% 5.0 mph NW8.0 kmh NW 11.0 mph17.7 kmh 30.52 in1033.5 mb 0.00 in0.0 mm 0.00 in0.0 mm 0.00 in0.0 mm
04:30 AM 9.4°F-12.6°C 5.0°F-15.0°C 82% 5.0 mph NW8.0 kmh NW 16.0 mph25.7 kmh 30.52 in1033.5 mb 0.00 in0.0 mm 0.00 in0.0 mm 0.00 in0.0 mm
04:32 AM 9.3°F-12.6°C 4.9°F-15.1°C 82% 5.0 mph NW8.0 kmh NW 16.0 mph25.7 kmh 30.52 in1033.5 mb 0.00 in0.0 mm 0.00 in0.0 mm 0.00 in0.0 mm
04:34 AM 9.3°F-12.6°C 4.9°F-15.1°C 82% 5.0 mph NW8.0 kmh NW 16.0 mph25.7 kmh 30.52 in1033.5 mb 0.00 in0.0 mm 0.00 in0.0 mm 0.00 in0.0 mm
04:36 AM 9.2°F-12.7°C 4.8°F-15.1°C 82% 5.0 mph NW8.0 kmh NW 16.0 mph25.7 kmh 30.52 in1033.5 mb 0.00 in0.0 mm 0.00 in0.0 mm 0.00 in0.0 mm
04:38 AM 9.2°F-12.7°C 4.8°F-15.1°C 82% 5.0 mph NW8.0 kmh NW 16.0 mph25.7 kmh 30.52 in1033.5 mb 0.00 in0.0 mm 0.00 in0.0 mm 0.00 in0.0 mm
04:40 AM 9.1°F-12.7°C 4.7°F-15.2°C 82% 5.0 mph NW8.0 kmh NW 12.0 mph19.3 kmh 30.52 in1033.5 mb 0.00 in0.0 mm 0.00 in0.0 mm 0.00 in0.0 mm
04:42 AM 9.1°F-12.7°C 4.7°F-15.2°C 82% 5.0 mph NW8.0 kmh NW 15.0 mph24.1 kmh 30.52 in1033.5 mb 0.00 in0.0 mm 0.00 in0.0 mm 0.00 in0.0 mm
04:44 AM 9.1°F-12.7°C 4.7°F-15.2°C 82% 5.0 mph NW8.0 kmh NW 15.0 mph24.1 kmh 30.52 in1033.5 mb 0.00 in0.0 mm 0.00 in0.0 mm 0.00 in0.0 mm
04:46 AM 9.1°F-12.7°C 4.7°F-15.2°C 82% 5.0 mph NW8.0 kmh NW 15.0 mph24.1 kmh 30.52 in1033.5 mb 0.00 in0.0 mm 0.00 in0.0 mm 0.00 in0.0 mm
04:48 AM 9.1°F-12.7°C 4.7°F-15.2°C 82% 6.0 mph NW9.7 kmh NW 15.0 mph24.1 kmh 30.52 in1033.5 mb 0.00 in0.0 mm 0.00 in0.0 mm 0.00 in0.0 mm
04:50 AM 9.1°F-12.7°C 4.7°F-15.2°C 82% 6.0 mph NW9.7 kmh NW 15.0 mph24.1 kmh 30.52 in1033.5 mb 0.00 in0.0 mm 0.00 in0.0 mm 0.00 in0.0 mm
04:52 AM 9.1°F-12.7°C 4.7°F-15.2°C 82% 6.0 mph NW9.7 kmh NW 12.0 mph19.3 kmh 30.52 in1033.5 mb 0.00 in0.0 mm 0.00 in0.0 mm 0.00 in0.0 mm
04:54 AM 9.0°F-12.8°C 4.6°F-15.2°C 82% 6.0 mph NW9.7 kmh NW 12.0 mph19.3 kmh 30.52 in1033.5 mb 0.00 in0.0 mm 0.00 in0.0 mm 0.00 in0.0 mm
04:56 AM 9.0°F-12.8°C 4.6°F-15.2°C 82% 6.0 mph NW9.7 kmh NW 12.0 mph19.3 kmh 30.52 in1033.5 mb 0.00 in0.0 mm 0.00 in0.0 mm 0.00 in0.0 mm
04:58 AM 9.0°F-12.8°C 4.6°F-15.2°C 82% 5.0 mph NW8.0 kmh NW 11.0 mph17.7 kmh 30.52 in1033.5 mb 0.00 in0.0 mm 0.00 in0.0 mm 0.00 in0.0 mm
05:00 AM 9.0°F-12.8°C 4.6°F-15.2°C 82% 5.0 mph NW8.0 kmh NW 11.0 mph17.7 kmh 30.52 in1033.5 mb 0.00 in0.0 mm 0.00 in0.0 mm 0.00 in0.0 mm
05:02 AM 8.9°F-12.8°C 4.5°F-15.3°C 82% 5.0 mph NW8.0 kmh NW 12.0 mph19.3 kmh 30.52 in1033.5 mb 0.00 in0.0 mm 0.00 in0.0 mm 0.00 in0.0 mm
05:04 AM 8.9°F-12.8°C 4.5°F-15.3°C 82% 5.0 mph NW8.0 kmh NW 12.0 mph19.3 kmh 30.52 in1033.5 mb 0.00 in0.0 mm 0.00 in0.0 mm 0.00 in0.0 mm
05:06 AM 8.9°F-12.8°C 4.5°F-15.3°C 82% 6.0 mph NW9.7 kmh NW 14.0 mph22.5 kmh 30.52 in1033.5 mb 0.00 in0.0 mm 0.00 in0.0 mm 0.00 in0.0 mm
05:08 AM 8.9°F-12.8°C 4.5°F-15.3°C 82% 6.0 mph NW9.7 kmh NW 14.0 mph22.5 kmh 30.52 in1033.5 mb 0.00 in0.0 mm 0.00 in0.0 mm 0.00 in0.0 mm
05:10 AM 8.9°F-12.8°C 4.5°F-15.3°C 82% 6.0 mph NW9.7 kmh NW 14.0 mph22.5 kmh 30.52 in1033.5 mb 0.00 in0.0 mm 0.00 in0.0 mm 0.00 in0.0 mm
05:12 AM 8.8°F-12.9°C 4.4°F-15.3°C 82% 6.0 mph NW9.7 kmh NW 14.0 mph22.5 kmh 30.52 in1033.5 mb 0.00 in0.0 mm 0.00 in0.0 mm 0.00 in0.0 mm
05:14 AM 8.8°F-12.9°C 4.4°F-15.3°C 82% 6.0 mph NW9.7 kmh NW 14.0 mph22.5 kmh 30.53 in1033.9 mb 0.00 in0.0 mm 0.00 in0.0 mm 0.00 in0.0 mm
05:16 AM 8.7°F-12.9°C 4.3°F-15.4°C 82% 6.0 mph NW9.7 kmh NW 13.0 mph20.9 kmh 30.53 in1033.9 mb 0.00 in0.0 mm 0.00 in0.0 mm 0.00 in0.0 mm
05:18 AM 8.7°F-12.9°C 4.3°F-15.4°C 82% 6.0 mph NW9.7 kmh NW 13.0 mph20.9 kmh 30.53 in1033.9 mb 0.00 in0.0 mm 0.00 in0.0 mm 0.00 in0.0 mm
05:20 AM 8.6°F-13.0°C 4.2°F-15.4°C 82% 5.0 mph NW8.0 kmh NW 13.0 mph20.9 kmh 30.53 in1033.9 mb 0.00 in0.0 mm 0.00 in0.0 mm 0.00 in0.0 mm
05:22 AM 8.5°F-13.1°C 4.1°F-15.5°C 82% 5.0 mph NW8.0 kmh NW 9.0 mph14.5 kmh 30.53 in1033.9 mb 0.00 in0.0 mm 0.00 in0.0 mm 0.00 in0.0 mm
05:24 AM 8.5°F-13.1°C 4.1°F-15.5°C 82% 5.0 mph NW8.0 kmh NW 12.0 mph19.3 kmh 30.53 in1033.9 mb 0.00 in0.0 mm 0.00 in0.0 mm 0.00 in0.0 mm
05:26 AM 8.4°F-13.1°C 4.0°F-15.6°C 82% 5.0 mph NW8.0 kmh NW 12.0 mph19.3 kmh 30.53 in1033.9 mb 0.00 in0.0 mm 0.00 in0.0 mm 0.00 in0.0 mm
05:28 AM 8.4°F-13.1°C 4.0°F-15.6°C 82% 5.0 mph NW8.0 kmh NW 12.0 mph19.3 kmh 30.53 in1033.9 mb 0.00 in0.0 mm 0.00 in0.0 mm 0.00 in0.0 mm
05:30 AM 8.4°F-13.1°C 4.3°F-15.4°C 83% 5.0 mph NW8.0 kmh NW 12.0 mph19.3 kmh 30.53 in1033.9 mb 0.00 in0.0 mm 0.00 in0.0 mm 0.00 in0.0 mm
05:32 AM 8.3°F-13.2°C 4.2°F-15.4°C 83% 5.0 mph NW8.0 kmh NW 12.0 mph19.3 kmh 30.53 in1033.9 mb 0.00 in0.0 mm 0.00 in0.0 mm 0.00 in0.0 mm
05:34 AM 8.3°F-13.2°C 4.2°F-15.4°C 83% 5.0 mph NW8.0 kmh NW 11.0 mph17.7 kmh 30.53 in1033.9 mb 0.00 in0.0 mm 0.00 in0.0 mm 0.00 in0.0 mm
05:36 AM 8.3°F-13.2°C 4.2°F-15.4°C 83% 5.0 mph NW8.0 kmh NW 11.0 mph17.7 kmh 30.53 in1033.9 mb 0.00 in0.0 mm 0.00 in0.0 mm 0.00 in0.0 mm
05:38 AM 8.3°F-13.2°C 4.2°F-15.4°C 83% 5.0 mph NW8.0 kmh NW 11.0 mph17.7 kmh 30.53 in1033.9 mb 0.00 in0.0 mm 0.00 in0.0 mm 0.00 in0.0 mm
05:40 AM 8.3°F-13.2°C 4.2°F-15.4°C 83% 6.0 mph NW9.7 kmh NW 11.0 mph17.7 kmh 30.53 in1033.9 mb 0.00 in0.0 mm 0.00 in0.0 mm 0.00 in0.0 mm
05:42 AM 8.3°F-13.2°C 4.2°F-15.4°C 83% 6.0 mph NW9.7 kmh NW 14.0 mph22.5 kmh 30.53 in1033.9 mb 0.00 in0.0 mm 0.00 in0.0 mm 0.00 in0.0 mm
05:44 AM 8.3°F-13.2°C 4.2°F-15.4°C 83% 6.0 mph NW9.7 kmh NW 14.0 mph22.5 kmh 30.53 in1033.9 mb 0.00 in0.0 mm 0.00 in0.0 mm 0.00 in0.0 mm
05:46 AM 8.3°F-13.2°C 4.2°F-15.4°C 83% 7.0 mph NW11.3 kmh NW 14.0 mph22.5 kmh 30.53 in1033.9 mb 0.00 in0.0 mm 0.00 in0.0 mm 0.00 in0.0 mm
05:48 AM 8.3°F-13.2°C 4.2°F-15.4°C 83% 6.0 mph NW9.7 kmh NW 14.0 mph22.5 kmh 30.53 in1033.9 mb 0.00 in0.0 mm 0.00 in0.0 mm 0.00 in0.0 mm
05:50 AM 8.3°F-13.2°C 4.2°F-15.4°C 83% 6.0 mph NW9.7 kmh NW 14.0 mph22.5 kmh 30.53 in1033.9 mb 0.00 in0.0 mm 0.00 in0.0 mm 0.00 in0.0 mm
05:52 AM 8.3°F-13.2°C 4.2°F-15.4°C 83% 6.0 mph NW9.7 kmh NW 13.0 mph20.9 kmh 30.53 in1033.9 mb 0.00 in0.0 mm 0.00 in0.0 mm 0.00 in0.0 mm
05:54 AM 8.2°F-13.2°C 4.1°F-15.5°C 83% 6.0 mph NW9.7 kmh NW 13.0 mph20.9 kmh 30.53 in1033.9 mb 0.00 in0.0 mm 0.00 in0.0 mm 0.00 in0.0 mm
05:56 AM 8.2°F-13.2°C 4.1°F-15.5°C 83% 7.0 mph NW11.3 kmh NW 13.0 mph20.9 kmh 30.53 in1033.9 mb 0.00 in0.0 mm 0.00 in0.0 mm 0.00 in0.0 mm
05:58 AM 8.2°F-13.2°C 3.8°F-15.7°C 82% 7.0 mph NW11.3 kmh NW 13.0 mph20.9 kmh 30.53 in1033.9 mb 0.00 in0.0 mm 0.00 in0.0 mm 0.00 in0.0 mm
06:00 AM 8.2°F-13.2°C 3.8°F-15.7°C 82% 7.0 mph NW11.3 kmh NW 13.0 mph20.9 kmh 30.53 in1033.9 mb 0.00 in0.0 mm 0.00 in0.0 mm 0.00 in0.0 mm
06:02 AM 8.2°F-13.2°C 3.8°F-15.7°C 82% 7.0 mph NW11.3 kmh NW 13.0 mph20.9 kmh 30.54 in1034.2 mb 0.00 in0.0 mm 0.00 in0.0 mm 0.00 in0.0 mm
06:04 AM 8.1°F-13.3°C 3.7°F-15.7°C 82% 7.0 mph NW11.3 kmh NW 12.0 mph19.3 kmh 30.54 in1034.2 mb 0.00 in0.0 mm 0.00 in0.0 mm 0.00 in0.0 mm
06:06 AM 8.1°F-13.3°C 3.7°F-15.7°C 82% 6.0 mph NW9.7 kmh NW 12.0 mph19.3 kmh 30.54 in1034.2 mb 0.00 in0.0 mm 0.00 in0.0 mm 0.00 in0.0 mm
06:08 AM 8.1°F-13.3°C 3.7°F-15.7°C 82% 6.0 mph NW9.7 kmh NW 12.0 mph19.3 kmh 30.54 in1034.2 mb 0.00 in0.0 mm 0.00 in0.0 mm 0.00 in0.0 mm
06:10 AM 8.1°F-13.3°C 3.7°F-15.7°C 82% 6.0 mph NW9.7 kmh NW 13.0 mph20.9 kmh 30.54 in1034.2 mb 0.00 in0.0 mm 0.00 in0.0 mm 0.00 in0.0 mm
06:12 AM 8.1°F-13.3°C 3.7°F-15.7°C 82% 6.0 mph NW9.7 kmh NW 13.0 mph20.9 kmh 30.54 in1034.2 mb 0.00 in0.0 mm 0.00 in0.0 mm 0.00 in0.0 mm
06:14 AM 8.1°F-13.3°C 3.7°F-15.7°C 82% 6.0 mph NW9.7 kmh NW 13.0 mph20.9 kmh 30.55 in1034.5 mb 0.00 in0.0 mm 0.00 in0.0 mm 0.00 in0.0 mm
06:16 AM 8.0°F-13.3°C 3.6°F-15.8°C 82% 6.0 mph NW9.7 kmh NW 13.0 mph20.9 kmh 30.54 in1034.2 mb 0.00 in0.0 mm 0.00 in0.0 mm 0.00 in0.0 mm
06:18 AM 8.0°F-13.3°C 3.6°F-15.8°C 82% 6.0 mph NW9.7 kmh NW 13.0 mph20.9 kmh 30.54 in1034.2 mb 0.00 in0.0 mm 0.00 in0.0 mm 0.00 in0.0 mm
06:20 AM 7.9°F-13.4°C 3.5°F-15.8°C 82% 5.0 mph NW8.0 kmh NW 10.0 mph16.1 kmh 30.54 in1034.2 mb 0.00 in0.0 mm 0.00 in0.0 mm 0.00 in0.0 mm
06:22 AM 7.8°F-13.4°C 3.4°F-15.9°C 82% 4.0 mph NW6.4 kmh NW 10.0 mph16.1 kmh 30.55 in1034.5 mb 0.00 in0.0 mm 0.00 in0.0 mm 0.00 in0.0 mm
06:24 AM 7.8°F-13.4°C 3.7°F-15.7°C 83% 5.0 mph NW8.0 kmh NW 10.0 mph16.1 kmh 30.55 in1034.5 mb 0.00 in0.0 mm 0.00 in0.0 mm 0.00 in0.0 mm
06:26 AM 7.8°F-13.4°C 3.4°F-15.9°C 82% 5.0 mph NW8.0 kmh NW 10.0 mph16.1 kmh 30.55 in1034.5 mb 0.00 in0.0 mm 0.00 in0.0 mm 0.00 in0.0 mm
06:28 AM 7.7°F-13.5°C 3.6°F-15.8°C 83% 5.0 mph NW8.0 kmh NW 11.0 mph17.7 kmh 30.55 in1034.5 mb 0.00 in0.0 mm 0.00 in0.0 mm 0.00 in0.0 mm
06:30 AM 7.7°F-13.5°C 3.6°F-15.8°C 83% 5.0 mph NW8.0 kmh NW 11.0 mph17.7 kmh 30.55 in1034.5 mb 0.00 in0.0 mm 0.00 in0.0 mm 0.00 in0.0 mm
06:32 AM 7.7°F-13.5°C 3.4°F-15.9°C 82% 6.0 mph NW9.7 kmh NW 11.0 mph17.7 kmh 30.55 in1034.5 mb 0.00 in0.0 mm 0.00 in0.0 mm 0.00 in0.0 mm
06:34 AM 7.7°F-13.5°C 3.4°F-15.9°C 82% 6.0 mph NW9.7 kmh NW 11.0 mph17.7 kmh 30.55 in1034.5 mb 0.00 in0.0 mm 0.00 in0.0 mm 0.00 in0.0 mm
06:36 AM 7.7°F-13.5°C 3.4°F-15.9°C 82% 6.0 mph NW9.7 kmh NW 11.0 mph17.7 kmh 30.55 in1034.5 mb 0.00 in0.0 mm 0.00 in0.0 mm 0.00 in0.0 mm
06:38 AM 7.6°F-13.6°C 3.5°F-15.8°C 83% 6.0 mph NW9.7 kmh NW 11.0 mph17.7 kmh 30.55 in1034.5 mb 0.00 in0.0 mm 0.00 in0.0 mm 0.00 in0.0 mm
06:40 AM 7.6°F-13.6°C 3.3°F-15.9°C 82% 6.0 mph NW9.7 kmh NW 10.0 mph16.1 kmh 30.55 in1034.5 mb 0.00 in0.0 mm 0.00 in0.0 mm 0.00 in0.0 mm
06:42 AM 7.6°F-13.6°C 3.3°F-15.9°C 82% 5.0 mph NW8.0 kmh NW 10.0 mph16.1 kmh 30.55 in1034.5 mb 0.00 in0.0 mm 0.00 in0.0 mm 0.00 in0.0 mm
06:44 AM 7.5°F-13.6°C 3.2°F-16.0°C 82% 5.0 mph NW8.0 kmh NW 10.0 mph16.1 kmh 30.55 in1034.5 mb 0.00 in0.0 mm 0.00 in0.0 mm 0.00 in0.0 mm
06:46 AM 7.5°F-13.6°C 3.4°F-15.9°C 83% 5.0 mph NW8.0 kmh NW 9.0 mph14.5 kmh 30.56 in1034.9 mb 0.00 in0.0 mm 0.00 in0.0 mm 0.00 in0.0 mm
06:48 AM 7.5°F-13.6°C 3.4°F-15.9°C 83% 5.0 mph NW8.0 kmh NW 12.0 mph19.3 kmh 30.56 in1034.9 mb 0.00 in0.0 mm 0.00 in0.0 mm 0.00 in0.0 mm
06:50 AM 7.5°F-13.6°C 3.4°F-15.9°C 83% 4.0 mph NW6.4 kmh NW 12.0 mph19.3 kmh 30.56 in1034.9 mb 0.00 in0.0 mm 0.00 in0.0 mm 0.00 in0.0 mm
06:52 AM 7.5°F-13.6°C 3.4°F-15.9°C 83% 4.0 mph NW6.4 kmh NW 12.0 mph19.3 kmh 30.57 in1035.2 mb 0.00 in0.0 mm 0.00 in0.0 mm 0.00 in0.0 mm
06:54 AM 7.4°F-13.7°C 3.3°F-15.9°C 83% 5.0 mph NW8.0 kmh NW 12.0 mph19.3 kmh 30.56 in1034.9 mb 0.00 in0.0 mm 0.00 in0.0 mm 0.00 in0.0 mm
06:56 AM 7.4°F-13.7°C 3.3°F-15.9°C 83% 5.0 mph NW8.0 kmh NW 12.0 mph19.3 kmh 30.56 in1034.9 mb 0.00 in0.0 mm 0.00 in0.0 mm 0.00 in0.0 mm
06:58 AM 7.4°F-13.7°C 3.3°F-15.9°C 83% 5.0 mph NW8.0 kmh NW 11.0 mph17.7 kmh 30.57 in1035.2 mb 0.00 in0.0 mm 0.00 in0.0 mm 0.00 in0.0 mm
07:00 AM 7.4°F-13.7°C 3.3°F-15.9°C 83% 5.0 mph NW8.0 kmh NW 11.0 mph17.7 kmh 30.57 in1035.2 mb 0.00 in0.0 mm 0.00 in0.0 mm 0.00 in0.0 mm
07:02 AM 7.4°F-13.7°C 3.3°F-15.9°C 83% 5.0 mph NW8.0 kmh NW 11.0 mph17.7 kmh 30.57 in1035.2 mb 0.00 in0.0 mm 0.00 in0.0 mm 0.00 in0.0 mm
07:04 AM 7.4°F-13.7°C 3.3°F-15.9°C 83% 5.0 mph NW8.0 kmh NW 11.0 mph17.7 kmh 30.57 in1035.2 mb 0.00 in0.0 mm 0.00 in0.0 mm 0.00 in0.0 mm
07:06 AM 7.4°F-13.7°C 3.3°F-15.9°C 83% 5.0 mph NW8.0 kmh NW 11.0 mph17.7 kmh 30.57 in1035.2 mb 0.00 in0.0 mm 0.00 in0.0 mm 0.00 in0.0 mm
07:08 AM 7.4°F-13.7°C 3.3°F-15.9°C 83% 5.0 mph NW8.0 kmh NW 11.0 mph17.7 kmh 30.57 in1035.2 mb 0.00 in0.0 mm 0.00 in0.0 mm 0.00 in0.0 mm
07:10 AM 7.4°F-13.7°C 3.3°F-15.9°C 83% 5.0 mph NW8.0 kmh NW 10.0 mph16.1 kmh 30.57 in1035.2 mb 0.00 in0.0 mm 0.00 in0.0 mm 0.00 in0.0 mm
07:12 AM 7.5°F-13.6°C 3.4°F-15.9°C 83% 5.0 mph NW8.0 kmh NW 11.0 mph17.7 kmh 30.57 in1035.2 mb 0.00 in0.0 mm 0.00 in0.0 mm 0.00 in0.0 mm
07:14 AM 7.5°F-13.6°C 3.4°F-15.9°C 83% 5.0 mph NW8.0 kmh NW 11.0 mph17.7 kmh 30.57 in1035.2 mb 0.00 in0.0 mm 0.00 in0.0 mm 0.00 in0.0 mm
07:16 AM 7.5°F-13.6°C 3.4°F-15.9°C 83% 5.0 mph NW8.0 kmh NW 11.0 mph17.7 kmh 30.57 in1035.2 mb 0.00 in0.0 mm 0.00 in0.0 mm 0.00 in0.0 mm
07:22 AM 7.6°F-13.6°C 3.5°F-15.8°C 83% 5.0 mph NW8.0 kmh NW 7.0 mph11.3 kmh 30.57 in1035.2 mb 0.00 in0.0 mm 0.00 in0.0 mm 0.24 in6.1 mm
07:24 AM 7.7°F-13.5°C 3.6°F-15.8°C 83% 5.0 mph NW8.0 kmh NW 8.0 mph12.9 kmh 30.57 in1035.2 mb 0.00 in0.0 mm 0.00 in0.0 mm 0.24 in6.1 mm
07:26 AM 7.7°F-13.5°C 3.6°F-15.8°C 83% 4.0 mph NW6.4 kmh NW 8.0 mph12.9 kmh 30.57 in1035.2 mb 0.00 in0.0 mm 0.00 in0.0 mm 0.24 in6.1 mm
07:28 AM 7.8°F-13.4°C 3.7°F-15.7°C 83% 4.0 mph NW6.4 kmh NW 8.0 mph12.9 kmh 30.57 in1035.2 mb 0.00 in0.0 mm 0.00 in0.0 mm 0.24 in6.1 mm
07:30 AM 7.8°F-13.4°C 3.7°F-15.7°C 83% 4.0 mph NW6.4 kmh NW 8.0 mph12.9 kmh 30.57 in1035.2 mb 0.00 in0.0 mm 0.00 in0.0 mm 0.24 in6.1 mm
07:32 AM 7.8°F-13.4°C 3.7°F-15.7°C 83% 4.0 mph NW6.4 kmh NW 10.0 mph16.1 kmh 30.57 in1035.2 mb 0.00 in0.0 mm 0.00 in0.0 mm 0.24 in6.1 mm
07:34 AM 7.9°F-13.4°C 3.8°F-15.7°C 83% 4.0 mph NW6.4 kmh NW 10.0 mph16.1 kmh 30.58 in1035.6 mb 0.00 in0.0 mm 0.00 in0.0 mm 0.24 in6.1 mm
07:36 AM 8.0°F-13.3°C 3.9°F-15.6°C 83% 4.0 mph NW6.4 kmh NW 10.0 mph16.1 kmh 30.58 in1035.6 mb 0.00 in0.0 mm 0.00 in0.0 mm 0.24 in6.1 mm
07:38 AM 8.0°F-13.3°C 3.9°F-15.6°C 83% 5.0 mph NW8.0 kmh NW 10.0 mph16.1 kmh 30.58 in1035.6 mb 0.00 in0.0 mm 0.00 in0.0 mm 0.24 in6.1 mm
07:40 AM 8.1°F-13.3°C 4.0°F-15.6°C 83% 5.0 mph NW8.0 kmh NW 10.0 mph16.1 kmh 30.58 in1035.6 mb 0.00 in0.0 mm 0.00 in0.0 mm 0.24 in6.1 mm
07:42 AM 8.2°F-13.2°C 4.1°F-15.5°C 83% 5.0 mph NW8.0 kmh NW 10.0 mph16.1 kmh 30.58 in1035.6 mb 0.00 in0.0 mm 0.00 in0.0 mm 0.24 in6.1 mm
07:44 AM 8.2°F-13.2°C 4.1°F-15.5°C 83% 5.0 mph NW8.0 kmh NW 10.0 mph16.1 kmh 30.58 in1035.6 mb 0.00 in0.0 mm 0.00 in0.0 mm 0.24 in6.1 mm
07:46 AM 8.3°F-13.2°C 4.2°F-15.4°C 83% 5.0 mph NW8.0 kmh NW 10.0 mph16.1 kmh 30.58 in1035.6 mb 0.00 in0.0 mm 0.00 in0.0 mm 0.24 in6.1 mm
07:48 AM 8.4°F-13.1°C 4.3°F-15.4°C 83% 5.0 mph NW8.0 kmh NW 9.0 mph14.5 kmh 30.58 in1035.6 mb 0.00 in0.0 mm 0.00 in0.0 mm 0.24 in6.1 mm
07:50 AM 8.4°F-13.1°C 4.3°F-15.4°C 83% 5.0 mph NW8.0 kmh NW 9.0 mph14.5 kmh 30.58 in1035.6 mb 0.00 in0.0 mm 0.00 in0.0 mm 0.24 in6.1 mm
07:52 AM 8.5°F-13.1°C 4.4°F-15.3°C 83% 5.0 mph NW8.0 kmh NW 9.0 mph14.5 kmh 30.58 in1035.6 mb 0.00 in0.0 mm 0.00 in0.0 mm 0.24 in6.1 mm
07:54 AM 8.6°F-13.0°C 4.5°F-15.3°C 83% 5.0 mph NW8.0 kmh NW 9.0 mph14.5 kmh 30.58 in1035.6 mb 0.00 in0.0 mm 0.00 in0.0 mm 0.24 in6.1 mm
07:56 AM 8.7°F-12.9°C 4.3°F-15.4°C 82% 5.0 mph NW8.0 kmh NW 14.0 mph22.5 kmh 30.58 in1035.6 mb 0.00 in0.0 mm 0.00 in0.0 mm 0.24 in6.1 mm
07:58 AM 8.7°F-12.9°C 4.3°F-15.4°C 82% 6.0 mph NW9.7 kmh NW 14.0 mph22.5 kmh 30.58 in1035.6 mb 0.00 in0.0 mm 0.00 in0.0 mm 0.24 in6.1 mm
08:00 AM 8.8°F-12.9°C 4.4°F-15.3°C 82% 5.0 mph NW8.0 kmh NW 14.0 mph22.5 kmh 30.58 in1035.6 mb 0.00 in0.0 mm 0.00 in0.0 mm 0.24 in6.1 mm
08:02 AM 8.8°F-12.9°C 4.4°F-15.3°C 82% 5.0 mph NW8.0 kmh NW 14.0 mph22.5 kmh 30.58 in1035.6 mb 0.00 in0.0 mm 0.00 in0.0 mm 0.24 in6.1 mm
08:04 AM 9.0°F-12.8°C 4.6°F-15.2°C 82% 5.0 mph NW8.0 kmh NW 14.0 mph22.5 kmh 30.58 in1035.6 mb 0.00 in0.0 mm 0.00 in0.0 mm 0.24 in6.1 mm
08:06 AM 9.0°F-12.8°C 4.6°F-15.2°C 82% 5.0 mph NW8.0 kmh NW 13.0 mph20.9 kmh 30.58 in1035.6 mb 0.00 in0.0 mm 0.00 in0.0 mm 0.24 in6.1 mm
08:08 AM 9.1°F-12.7°C 4.7°F-15.2°C 82% 5.0 mph NW8.0 kmh NW 13.0 mph20.9 kmh 30.58 in1035.6 mb 0.00 in0.0 mm 0.00 in0.0 mm 0.24 in6.1 mm
08:10 AM 9.2°F-12.7°C 4.8°F-15.1°C 82% 5.0 mph NW8.0 kmh NW 13.0 mph20.9 kmh 30.58 in1035.6 mb 0.00 in0.0 mm 0.00 in0.0 mm 0.24 in6.1 mm
08:12 AM 9.3°F-12.6°C 4.9°F-15.1°C 82% 5.0 mph NW8.0 kmh NW 13.0 mph20.9 kmh 30.58 in1035.6 mb 0.00 in0.0 mm 0.00 in0.0 mm 0.24 in6.1 mm
08:14 AM 9.5°F-12.5°C 5.1°F-14.9°C 82% 5.0 mph NW8.0 kmh NW 13.0 mph20.9 kmh 30.59 in1035.9 mb 0.00 in0.0 mm 0.00 in0.0 mm 0.24 in6.1 mm
08:16 AM 9.6°F-12.4°C 5.2°F-14.9°C 82% 5.0 mph NW8.0 kmh NW 11.0 mph17.7 kmh 30.59 in1035.9 mb 0.00 in0.0 mm 0.00 in0.0 mm 0.24 in6.1 mm
08:18 AM 9.7°F-12.4°C 5.3°F-14.8°C 82% 5.0 mph NW8.0 kmh NW 11.0 mph17.7 kmh 30.59 in1035.9 mb 0.00 in0.0 mm 0.00 in0.0 mm 0.24 in6.1 mm
08:20 AM 9.8°F-12.3°C 5.1°F-14.9°C 81% 6.0 mph NW9.7 kmh NW 11.0 mph17.7 kmh 30.59 in1035.9 mb 0.00 in0.0 mm 0.00 in0.0 mm 0.24 in6.1 mm
08:22 AM 9.8°F-12.3°C 5.1°F-14.9°C 81% 6.0 mph NW9.7 kmh NW 13.0 mph20.9 kmh 30.59 in1035.9 mb 0.00 in0.0 mm 0.00 in0.0 mm 0.24 in6.1 mm
08:24 AM 9.9°F-12.3°C 5.2°F-14.9°C 81% 5.0 mph NW8.0 kmh NW 13.0 mph20.9 kmh 30.59 in1035.9 mb 0.00 in0.0 mm 0.00 in0.0 mm 0.24 in6.1 mm
08:26 AM 10.0°F-12.2°C 5.3°F-14.8°C 81% 5.0 mph NW8.0 kmh NW 13.0 mph20.9 kmh 30.59 in1035.9 mb 0.00 in0.0 mm 0.00 in0.0 mm 0.24 in6.1 mm
08:28 AM 10.1°F-12.2°C 5.4°F-14.8°C 81% 6.0 mph NW9.7 kmh NW 13.0 mph20.9 kmh 30.59 in1035.9 mb 0.00 in0.0 mm 0.00 in0.0 mm 0.24 in6.1 mm
08:30 AM 10.1°F-12.2°C 5.4°F-14.8°C 81% 6.0 mph NW9.7 kmh NW 13.0 mph20.9 kmh 30.59 in1035.9 mb 0.00 in0.0 mm 0.00 in0.0 mm 0.24 in6.1 mm
08:32 AM 10.2°F-12.1°C 5.3°F-14.8°C 80% 6.0 mph NW9.7 kmh NW 12.0 mph19.3 kmh 30.59 in1035.9 mb 0.00 in0.0 mm 0.00 in0.0 mm 0.24 in6.1 mm
08:34 AM 10.3°F-12.1°C 5.4°F-14.8°C 80% 6.0 mph NW9.7 kmh NW 12.0 mph19.3 kmh 30.59 in1035.9 mb 0.00 in0.0 mm 0.00 in0.0 mm 0.24 in6.1 mm
08:36 AM 10.4°F-12.0°C 5.5°F-14.7°C 80% 6.0 mph NW9.7 kmh NW 12.0 mph19.3 kmh 30.59 in1035.9 mb 0.00 in0.0 mm 0.00 in0.0 mm 0.24 in6.1 mm
08:38 AM 10.5°F-11.9°C 5.5°F-14.7°C 80% 5.0 mph NW8.0 kmh NW 11.0 mph17.7 kmh 30.59 in1035.9 mb 0.00 in0.0 mm 0.00 in0.0 mm 0.24 in6.1 mm
08:40 AM 10.6°F-11.9°C 5.6°F-14.7°C 80% 5.0 mph NW8.0 kmh NW 11.0 mph17.7 kmh 30.59 in1035.9 mb 0.00 in0.0 mm 0.00 in0.0 mm 0.24 in6.1 mm
08:42 AM 10.7°F-11.8°C 5.7°F-14.6°C 80% 5.0 mph NW8.0 kmh NW 12.0 mph19.3 kmh 30.59 in1035.9 mb 0.00 in0.0 mm 0.00 in0.0 mm 0.24 in6.1 mm
08:44 AM 10.8°F-11.8°C 5.8°F-14.6°C 80% 6.0 mph NW9.7 kmh NW 12.0 mph19.3 kmh 30.59 in1035.9 mb 0.00 in0.0 mm 0.00 in0.0 mm 0.24 in6.1 mm
08:46 AM 10.9°F-11.7°C 5.9°F-14.5°C 80% 5.0 mph NW8.0 kmh NW 12.0 mph19.3 kmh 30.59 in1035.9 mb 0.00 in0.0 mm 0.00 in0.0 mm 0.24 in6.1 mm
08:48 AM 11.0°F-11.7°C 6.0°F-14.4°C 80% 5.0 mph NW8.0 kmh NW 12.0 mph19.3 kmh 30.59 in1035.9 mb 0.00 in0.0 mm 0.00 in0.0 mm 0.24 in6.1 mm
08:50 AM 11.1°F-11.6°C 6.1°F-14.4°C 80% 5.0 mph NW8.0 kmh NW 12.0 mph19.3 kmh 30.59 in1035.9 mb 0.00 in0.0 mm 0.00 in0.0 mm 0.24 in6.1 mm
08:52 AM 11.3°F-11.5°C 6.3°F-14.3°C 80% 5.0 mph NW8.0 kmh NW 12.0 mph19.3 kmh 30.59 in1035.9 mb 0.00 in0.0 mm 0.00 in0.0 mm 0.24 in6.1 mm
08:54 AM 11.3°F-11.5°C 6.3°F-14.3°C 80% 5.0 mph NW8.0 kmh NW 13.0 mph20.9 kmh 30.59 in1035.9 mb 0.00 in0.0 mm 0.00 in0.0 mm 0.24 in6.1 mm
08:56 AM 11.4°F-11.4°C 6.2°F-14.3°C 79% 6.0 mph NW9.7 kmh NW 15.0 mph24.1 kmh 30.59 in1035.9 mb 0.00 in0.0 mm 0.00 in0.0 mm 0.24 in6.1 mm
08:58 AM 11.4°F-11.4°C 6.2°F-14.3°C 79% 6.0 mph NW9.7 kmh NW 15.0 mph24.1 kmh 30.59 in1035.9 mb 0.00 in0.0 mm 0.00 in0.0 mm 0.24 in6.1 mm
09:00 AM 11.6°F-11.3°C 6.3°F-14.3°C 79% 5.0 mph NW8.0 kmh NW 15.0 mph24.1 kmh 30.59 in1035.9 mb 0.00 in0.0 mm 0.00 in0.0 mm 0.24 in6.1 mm
09:02 AM 11.7°F-11.3°C 6.4°F-14.2°C 79% 5.0 mph NW8.0 kmh NW 15.0 mph24.1 kmh 30.59 in1035.9 mb 0.00 in0.0 mm 0.00 in0.0 mm 0.24 in6.1 mm
09:04 AM 11.7°F-11.3°C 6.4°F-14.2°C 79% 5.0 mph NW8.0 kmh NW 15.0 mph24.1 kmh 30.59 in1035.9 mb 0.00 in0.0 mm 0.00 in0.0 mm 0.24 in6.1 mm
09:06 AM 11.9°F-11.2°C 6.6°F-14.1°C 79% 5.0 mph NW8.0 kmh NW 12.0 mph19.3 kmh 30.59 in1035.9 mb 0.00 in0.0 mm 0.00 in0.0 mm 0.24 in6.1 mm
09:08 AM 11.9°F-11.2°C 6.4°F-14.2°C 78% 5.0 mph NW8.0 kmh NW 12.0 mph19.3 kmh 30.59 in1035.9 mb 0.00 in0.0 mm 0.00 in0.0 mm 0.24 in6.1 mm
09:10 AM 12.0°F-11.1°C 6.5°F-14.2°C 78% 6.0 mph NW9.7 kmh NW 12.0 mph19.3 kmh 30.59 in1035.9 mb 0.00 in0.0 mm 0.00 in0.0 mm 0.24 in6.1 mm
09:12 AM 12.0°F-11.1°C 6.5°F-14.2°C 78% 6.0 mph NW9.7 kmh NW 12.0 mph19.3 kmh 30.59 in1035.9 mb 0.00 in0.0 mm 0.00 in0.0 mm 0.24 in6.1 mm
09:14 AM 12.0°F-11.1°C 6.5°F-14.2°C 78% 6.0 mph NW9.7 kmh NW 12.0 mph19.3 kmh 30.59 in1035.9 mb 0.00 in0.0 mm 0.00 in0.0 mm 0.24 in6.1 mm
09:16 AM 12.1°F-11.1°C 6.6°F-14.1°C 78% 6.0 mph NW9.7 kmh NW 11.0 mph17.7 kmh 30.59 in1035.9 mb 0.00 in0.0 mm 0.00 in0.0 mm 0.24 in6.1 mm
09:18 AM 12.1°F-11.1°C 6.6°F-14.1°C 78% 5.0 mph NW8.0 kmh NW 11.0 mph17.7 kmh 30.59 in1035.9 mb 0.00 in0.0 mm 0.00 in0.0 mm 0.24 in6.1 mm
09:20 AM 12.1°F-11.1°C 6.6°F-14.1°C 78% 5.0 mph NW8.0 kmh NW 11.0 mph17.7 kmh 30.59 in1035.9 mb 0.00 in0.0 mm 0.00 in0.0 mm 0.24 in6.1 mm
09:22 AM 12.2°F-11.0°C 6.7°F-14.1°C 78% 5.0 mph NW8.0 kmh NW 12.0 mph19.3 kmh 30.59 in1035.9 mb 0.00 in0.0 mm 0.00 in0.0 mm 0.24 in6.1 mm
09:24 AM 12.3°F-10.9°C 6.7°F-14.1°C 78% 6.0 mph NW9.7 kmh NW 12.0 mph19.3 kmh 30.59 in1035.9 mb 0.00 in0.0 mm 0.00 in0.0 mm 0.24 in6.1 mm
09:26 AM 12.4°F-10.9°C 6.8°F-14.0°C 78% 5.0 mph NW8.0 kmh NW 12.0 mph19.3 kmh 30.58 in1035.6 mb 0.00 in0.0 mm 0.00 in0.0 mm 0.24 in6.1 mm
09:28 AM 12.5°F-10.8°C 6.9°F-13.9°C 78% 6.0 mph NW9.7 kmh NW 12.0 mph19.3 kmh 30.58 in1035.6 mb 0.00 in0.0 mm 0.00 in0.0 mm 0.24 in6.1 mm
09:30 AM 12.6°F-10.8°C 7.0°F-13.9°C 78% 6.0 mph NW9.7 kmh NW 12.0 mph19.3 kmh 30.58 in1035.6 mb 0.00 in0.0 mm 0.00 in0.0 mm 0.24 in6.1 mm
09:32 AM 12.6°F-10.8°C 7.0°F-13.9°C 78% 6.0 mph NW9.7 kmh NW 12.0 mph19.3 kmh 30.59 in1035.9 mb 0.00 in0.0 mm 0.00 in0.0 mm 0.24 in6.1 mm
09:34 AM 12.7°F-10.7°C 7.1°F-13.8°C 78% 6.0 mph NW9.7 kmh NW 12.0 mph19.3 kmh 30.58 in1035.6 mb 0.00 in0.0 mm 0.00 in0.0 mm 0.24 in6.1 mm
09:36 AM 12.8°F-10.7°C 7.2°F-13.8°C 78% 6.0 mph NW9.7 kmh NW 12.0 mph19.3 kmh 30.58 in1035.6 mb 0.00 in0.0 mm 0.00 in0.0 mm 0.24 in6.1 mm
09:38 AM 12.9°F-10.6°C 7.0°F-13.9°C 77% 6.0 mph NW9.7 kmh NW 12.0 mph19.3 kmh 30.58 in1035.6 mb 0.00 in0.0 mm 0.00 in0.0 mm 0.24 in6.1 mm
09:40 AM 13.0°F-10.6°C 7.1°F-13.8°C 77% 5.0 mph NW8.0 kmh NW 12.0 mph19.3 kmh 30.58 in1035.6 mb 0.00 in0.0 mm 0.00 in0.0 mm 0.24 in6.1 mm
09:42 AM 13.0°F-10.6°C 7.1°F-13.8°C 77% 5.0 mph NW8.0 kmh NW 11.0 mph17.7 kmh 30.58 in1035.6 mb 0.00 in0.0 mm 0.00 in0.0 mm 0.24 in6.1 mm
09:44 AM 13.1°F-10.5°C 7.2°F-13.8°C 77% 5.0 mph NW8.0 kmh NW 11.0 mph17.7 kmh 30.59 in1035.9 mb 0.00 in0.0 mm 0.00 in0.0 mm 0.24 in6.1 mm
09:46 AM 13.2°F-10.4°C 7.3°F-13.7°C 77% 5.0 mph NW8.0 kmh NW 9.0 mph14.5 kmh 30.59 in1035.9 mb 0.00 in0.0 mm 0.00 in0.0 mm 0.24 in6.1 mm
09:48 AM 13.2°F-10.4°C 7.3°F-13.7°C 77% 5.0 mph NW8.0 kmh NW 9.0 mph14.5 kmh 30.59 in1035.9 mb 0.00 in0.0 mm 0.00 in0.0 mm 0.24 in6.1 mm
09:50 AM 13.4°F-10.3°C 7.5°F-13.6°C 77% 5.0 mph NW8.0 kmh NW 12.0 mph19.3 kmh 30.59 in1035.9 mb 0.00 in0.0 mm 0.00 in0.0 mm 0.24 in6.1 mm
09:52 AM 13.5°F-10.3°C 7.3°F-13.7°C 76% 5.0 mph NW8.0 kmh NW 12.0 mph19.3 kmh 30.59 in1035.9 mb 0.00 in0.0 mm 0.00 in0.0 mm 0.24 in6.1 mm
09:54 AM 13.7°F-10.2°C 7.5°F-13.6°C 76% 5.0 mph NW8.0 kmh NW 12.0 mph19.3 kmh 30.59 in1035.9 mb 0.00 in0.0 mm 0.00 in0.0 mm 0.24 in6.1 mm
09:56 AM 13.8°F-10.1°C 7.6°F-13.6°C 76% 5.0 mph NW8.0 kmh NW 12.0 mph19.3 kmh 30.59 in1035.9 mb 0.00 in0.0 mm 0.00 in0.0 mm 0.24 in6.1 mm
10:00 AM 14.0°F-10.0°C 7.8°F-13.4°C 76% 5.0 mph NW8.0 kmh NW 12.0 mph19.3 kmh 30.59 in1035.9 mb 0.00 in0.0 mm 0.00 in0.0 mm 0.24 in6.1 mm
10:02 AM 14.1°F-9.9°C 7.9°F-13.4°C 76% 5.0 mph NW8.0 kmh NW 12.0 mph19.3 kmh 30.59 in1035.9 mb 0.00 in0.0 mm 0.00 in0.0 mm 0.24 in6.1 mm
10:04 AM 14.3°F-9.8°C 8.1°F-13.3°C 76% 5.0 mph NW8.0 kmh NW 12.0 mph19.3 kmh 30.59 in1035.9 mb 0.00 in0.0 mm 0.00 in0.0 mm 0.24 in6.1 mm
10:06 AM 14.5°F-9.7°C 8.3°F-13.2°C 76% 6.0 mph NW9.7 kmh NW 12.0 mph19.3 kmh 30.59 in1035.9 mb 0.00 in0.0 mm 0.00 in0.0 mm 0.24 in6.1 mm
10:08 AM 14.7°F-9.6°C 8.2°F-13.2°C 75% 6.0 mph NW9.7 kmh NW 12.0 mph19.3 kmh 30.59 in1035.9 mb 0.00 in0.0 mm 0.00 in0.0 mm 0.24 in6.1 mm
10:10 AM 14.9°F-9.5°C 8.4°F-13.1°C 75% 6.0 mph NW9.7 kmh NW 11.0 mph17.7 kmh 30.59 in1035.9 mb 0.00 in0.0 mm 0.00 in0.0 mm 0.24 in6.1 mm
10:12 AM 15.0°F-9.4°C 8.2°F-13.2°C 74% 6.0 mph NW9.7 kmh NW 11.0 mph17.7 kmh 30.59 in1035.9 mb 0.00 in0.0 mm 0.00 in0.0 mm 0.24 in6.1 mm
10:14 AM 15.1°F-9.4°C 8.3°F-13.2°C 74% 6.0 mph NW9.7 kmh NW 13.0 mph20.9 kmh 30.59 in1035.9 mb 0.00 in0.0 mm 0.00 in0.0 mm 0.24 in6.1 mm
10:16 AM 15.3°F-9.3°C 8.5°F-13.1°C 74% 6.0 mph NW9.7 kmh NW 13.0 mph20.9 kmh 30.59 in1035.9 mb 0.00 in0.0 mm 0.00 in0.0 mm 0.24 in6.1 mm
10:18 AM 15.5°F-9.2°C 8.7°F-12.9°C 74% 6.0 mph NW9.7 kmh NW 13.0 mph20.9 kmh 30.59 in1035.9 mb 0.00 in0.0 mm 0.00 in0.0 mm 0.24 in6.1 mm
10:20 AM 15.6°F-9.1°C 8.8°F-12.9°C 74% 5.0 mph NW8.0 kmh NW 13.0 mph20.9 kmh 30.59 in1035.9 mb 0.00 in0.0 mm 0.00 in0.0 mm 0.24 in6.1 mm
10:22 AM 15.7°F-9.1°C 8.6°F-13.0°C 73% 5.0 mph NW8.0 kmh NW 13.0 mph20.9 kmh 30.60 in1036.2 mb 0.00 in0.0 mm 0.00 in0.0 mm 0.24 in6.1 mm
10:24 AM 15.8°F-9.0°C 8.7°F-12.9°C 73% 5.0 mph NW8.0 kmh NW 10.0 mph16.1 kmh 30.59 in1035.9 mb 0.00 in0.0 mm 0.00 in0.0 mm 0.24 in6.1 mm
10:26 AM 15.9°F-8.9°C 8.8°F-12.9°C 73% 5.0 mph NW8.0 kmh NW 9.0 mph14.5 kmh 30.60 in1036.2 mb 0.00 in0.0 mm 0.00 in0.0 mm 0.24 in6.1 mm
10:28 AM 15.9°F-8.9°C 8.8°F-12.9°C 73% 5.0 mph NW8.0 kmh NW 10.0 mph16.1 kmh 30.60 in1036.2 mb 0.00 in0.0 mm 0.00 in0.0 mm 0.24 in6.1 mm
10:30 AM 15.9°F-8.9°C 8.8°F-12.9°C 73% 5.0 mph NW8.0 kmh NW 11.0 mph17.7 kmh 30.60 in1036.2 mb 0.00 in0.0 mm 0.00 in0.0 mm 0.24 in6.1 mm
10:32 AM 16.0°F-8.9°C 8.6°F-13.0°C 72% 5.0 mph NW8.0 kmh NW 11.0 mph17.7 kmh 30.60 in1036.2 mb 0.00 in0.0 mm 0.00 in0.0 mm 0.24 in6.1 mm
10:34 AM 16.1°F-8.8°C 8.7°F-12.9°C 72% 5.0 mph NW8.0 kmh NW 11.0 mph17.7 kmh 30.60 in1036.2 mb 0.00 in0.0 mm 0.00 in0.0 mm 0.24 in6.1 mm
10:36 AM 16.2°F-8.8°C 8.8°F-12.9°C 72% 5.0 mph NW8.0 kmh NW 11.0 mph17.7 kmh 30.60 in1036.2 mb 0.00 in0.0 mm 0.00 in0.0 mm 0.24 in6.1 mm
10:38 AM 16.3°F-8.7°C 8.9°F-12.8°C 72% 5.0 mph NW8.0 kmh NW 11.0 mph17.7 kmh 30.60 in1036.2 mb 0.00 in0.0 mm 0.00 in0.0 mm 0.24 in6.1 mm
10:40 AM 16.5°F-8.6°C 9.0°F-12.8°C 72% 5.0 mph NW8.0 kmh NW 11.0 mph17.7 kmh 30.60 in1036.2 mb 0.00 in0.0 mm 0.00 in0.0 mm 0.24 in6.1 mm
10:42 AM 16.7°F-8.5°C 9.2°F-12.7°C 72% 4.0 mph NW6.4 kmh NW 11.0 mph17.7 kmh 30.59 in1035.9 mb 0.00 in0.0 mm 0.00 in0.0 mm 0.24 in6.1 mm
10:44 AM 16.8°F-8.4°C 9.3°F-12.6°C 72% 5.0 mph NW8.0 kmh NW 12.0 mph19.3 kmh 30.59 in1035.9 mb 0.00 in0.0 mm 0.00 in0.0 mm 0.24 in6.1 mm
10:46 AM 16.9°F-8.4°C 9.4°F-12.6°C 72% 4.0 mph NW6.4 kmh NW 12.0 mph19.3 kmh 30.59 in1035.9 mb 0.00 in0.0 mm 0.00 in0.0 mm 0.24 in6.1 mm
10:48 AM 17.0°F-8.3°C 9.2°F-12.7°C 71% 5.0 mph NW8.0 kmh NW 12.0 mph19.3 kmh 30.59 in1035.9 mb 0.00 in0.0 mm 0.00 in0.0 mm 0.24 in6.1 mm
10:50 AM 17.1°F-8.3°C 9.3°F-12.6°C 71% 5.0 mph NW8.0 kmh NW 12.0 mph19.3 kmh 30.59 in1035.9 mb 0.00 in0.0 mm 0.00 in0.0 mm 0.24 in6.1 mm
10:52 AM 17.2°F-8.2°C 9.4°F-12.6°C 71% 5.0 mph NW8.0 kmh NW 12.0 mph19.3 kmh 30.59 in1035.9 mb 0.00 in0.0 mm 0.00 in0.0 mm 0.24 in6.1 mm
10:54 AM 17.5°F-8.1°C 9.7°F-12.4°C 71% 5.0 mph NW8.0 kmh NW 10.0 mph16.1 kmh 30.59 in1035.9 mb 0.00 in0.0 mm 0.00 in0.0 mm 0.24 in6.1 mm
10:56 AM 17.6°F-8.0°C 9.8°F-12.3°C 71% 5.0 mph NW8.0 kmh NW 10.0 mph16.1 kmh 30.59 in1035.9 mb 0.00 in0.0 mm 0.00 in0.0 mm 0.24 in6.1 mm
10:58 AM 17.7°F-7.9°C 9.6°F-12.4°C 70% 5.0 mph NW8.0 kmh NW 10.0 mph16.1 kmh 30.59 in1035.9 mb 0.00 in0.0 mm 0.00 in0.0 mm 0.24 in6.1 mm
11:00 AM 17.7°F-7.9°C 9.2°F-12.7°C 69% 5.0 mph NW8.0 kmh NW 10.0 mph16.1 kmh 30.59 in1035.9 mb 0.00 in0.0 mm 0.00 in0.0 mm 0.24 in6.1 mm
11:02 AM 17.5°F-8.1°C 9.1°F-12.7°C 69% 5.0 mph NW8.0 kmh NW 10.0 mph16.1 kmh 30.59 in1035.9 mb 0.00 in0.0 mm 0.00 in0.0 mm 0.24 in6.1 mm
11:04 AM 17.5°F-8.1°C 9.4°F-12.6°C 70% 5.0 mph NW8.0 kmh NW 10.0 mph16.1 kmh 30.59 in1035.9 mb 0.00 in0.0 mm 0.00 in0.0 mm 0.24 in6.1 mm
11:06 AM 17.5°F-8.1°C 9.4°F-12.6°C 70% 5.0 mph NW8.0 kmh NW 10.0 mph16.1 kmh 30.60 in1036.2 mb 0.00 in0.0 mm 0.00 in0.0 mm 0.24 in6.1 mm
11:08 AM 17.6°F-8.0°C 9.5°F-12.5°C 70% 5.0 mph NW8.0 kmh NW 10.0 mph16.1 kmh 30.59 in1035.9 mb 0.00 in0.0 mm 0.00 in0.0 mm 0.24 in6.1 mm
11:10 AM 17.7°F-7.9°C 9.2°F-12.7°C 69% 6.0 mph NW9.7 kmh NW 11.0 mph17.7 kmh 30.60 in1036.2 mb 0.00 in0.0 mm 0.00 in0.0 mm 0.24 in6.1 mm
11:12 AM 17.8°F-7.9°C 9.3°F-12.6°C 69% 6.0 mph NW9.7 kmh NW 11.0 mph17.7 kmh 30.59 in1035.9 mb 0.00 in0.0 mm 0.00 in0.0 mm 0.24 in6.1 mm
11:14 AM 17.9°F-7.8°C 9.4°F-12.6°C 69% 6.0 mph NW9.7 kmh NW 11.0 mph17.7 kmh 30.59 in1035.9 mb 0.00 in0.0 mm 0.00 in0.0 mm 0.24 in6.1 mm
11:16 AM 18.0°F-7.8°C 9.2°F-12.7°C 68% 6.0 mph NW9.7 kmh NW 11.0 mph17.7 kmh 30.60 in1036.2 mb 0.00 in0.0 mm 0.00 in0.0 mm 0.24 in6.1 mm
11:18 AM 18.1°F-7.7°C 9.0°F-12.8°C 67% 6.0 mph NW9.7 kmh NW 11.0 mph17.7 kmh 30.59 in1035.9 mb 0.00 in0.0 mm 0.00 in0.0 mm 0.24 in6.1 mm
11:20 AM 18.2°F-7.7°C 9.4°F-12.6°C 68% 5.0 mph NW8.0 kmh NW 11.0 mph17.7 kmh 30.59 in1035.9 mb 0.00 in0.0 mm 0.00 in0.0 mm 0.24 in6.1 mm
11:22 AM 18.3°F-7.6°C 9.5°F-12.5°C 68% 5.0 mph NW8.0 kmh NW 11.0 mph17.7 kmh 30.60 in1036.2 mb 0.00 in0.0 mm 0.00 in0.0 mm 0.24 in6.1 mm
11:24 AM 18.3°F-7.6°C 9.2°F-12.7°C 67% 5.0 mph NW8.0 kmh NW 11.0 mph17.7 kmh 30.59 in1035.9 mb 0.00 in0.0 mm 0.00 in0.0 mm 0.24 in6.1 mm
11:26 AM 18.4°F-7.6°C 9.6°F-12.4°C 68% 5.0 mph NW8.0 kmh NW 11.0 mph17.7 kmh 30.59 in1035.9 mb 0.00 in0.0 mm 0.00 in0.0 mm 0.24 in6.1 mm
11:28 AM 18.4°F-7.6°C 9.6°F-12.4°C 68% 5.0 mph NW8.0 kmh NW 9.0 mph14.5 kmh 30.59 in1035.9 mb 0.00 in0.0 mm 0.00 in0.0 mm 0.24 in6.1 mm
11:30 AM 18.5°F-7.5°C 9.4°F-12.6°C 67% 5.0 mph NW8.0 kmh NW 10.0 mph16.1 kmh 30.59 in1035.9 mb 0.00 in0.0 mm 0.00 in0.0 mm 0.24 in6.1 mm
11:32 AM 18.5°F-7.5°C 9.0°F-12.8°C 66% 5.0 mph NW8.0 kmh NW 10.0 mph16.1 kmh 30.59 in1035.9 mb 0.00 in0.0 mm 0.00 in0.0 mm 0.24 in6.1 mm
11:34 AM 18.6°F-7.4°C 9.1°F-12.7°C 66% 5.0 mph NW8.0 kmh NW 10.0 mph16.1 kmh 30.59 in1035.9 mb 0.00 in0.0 mm 0.00 in0.0 mm 0.24 in6.1 mm
11:36 AM 18.6°F-7.4°C 9.1°F-12.7°C 66% 5.0 mph NW8.0 kmh NW 10.0 mph16.1 kmh 30.59 in1035.9 mb 0.00 in0.0 mm 0.00 in0.0 mm 0.24 in6.1 mm
11:38 AM 18.4°F-7.6°C 8.6°F-13.0°C 65% 6.0 mph NW9.7 kmh NW 10.0 mph16.1 kmh 30.59 in1035.9 mb 0.00 in0.0 mm 0.00 in0.0 mm 0.24 in6.1 mm
11:40 AM 18.4°F-7.6°C 8.9°F-12.8°C 66% 6.0 mph NW9.7 kmh NW 10.0 mph16.1 kmh 30.59 in1035.9 mb 0.00 in0.0 mm 0.00 in0.0 mm 0.24 in6.1 mm
11:42 AM 18.4°F-7.6°C 9.3°F-12.6°C 67% 5.0 mph NW8.0 kmh NW 10.0 mph16.1 kmh 30.59 in1035.9 mb 0.00 in0.0 mm 0.00 in0.0 mm 0.24 in6.1 mm
11:44 AM 18.5°F-7.5°C 9.4°F-12.6°C 67% 5.0 mph NW8.0 kmh NW 9.0 mph14.5 kmh 30.59 in1035.9 mb 0.00 in0.0 mm 0.00 in0.0 mm 0.24 in6.1 mm
11:46 AM 18.6°F-7.4°C 9.1°F-12.7°C 66% 5.0 mph NW8.0 kmh NW 10.0 mph16.1 kmh 30.59 in1035.9 mb 0.00 in0.0 mm 0.00 in0.0 mm 0.24 in6.1 mm
11:48 AM 18.7°F-7.4°C 8.9°F-12.8°C 65% 5.0 mph NW8.0 kmh NW 11.0 mph17.7 kmh 30.59 in1035.9 mb 0.00 in0.0 mm 0.00 in0.0 mm 0.24 in6.1 mm
11:50 AM 18.7°F-7.4°C 8.9°F-12.8°C 65% 6.0 mph NW9.7 kmh NW 11.0 mph17.7 kmh 30.59 in1035.9 mb 0.00 in0.0 mm 0.00 in0.0 mm 0.24 in6.1 mm
11:52 AM 18.7°F-7.4°C 9.2°F-12.7°C 66% 6.0 mph NW9.7 kmh NW 11.0 mph17.7 kmh 30.59 in1035.9 mb 0.00 in0.0 mm 0.00 in0.0 mm 0.24 in6.1 mm
11:54 AM 18.8°F-7.3°C 9.6°F-12.4°C 67% 6.0 mph NW9.7 kmh NW 11.0 mph17.7 kmh 30.59 in1035.9 mb 0.00 in0.0 mm 0.00 in0.0 mm 0.24 in6.1 mm
11:56 AM 18.9°F-7.3°C 9.7°F-12.4°C 67% 5.0 mph NW8.0 kmh NW 11.0 mph17.7 kmh 30.59 in1035.9 mb 0.00 in0.0 mm 0.00 in0.0 mm 0.24 in6.1 mm
11:58 AM 19.0°F-7.2°C 9.5°F-12.5°C 66% 5.0 mph NW8.0 kmh NW 10.0 mph16.1 kmh 30.59 in1035.9 mb 0.00 in0.0 mm 0.00 in0.0 mm 0.24 in6.1 mm
12:00 PM 19.1°F-7.2°C 9.3°F-12.6°C 65% 5.0 mph NW8.0 kmh NW 10.0 mph16.1 kmh 30.59 in1035.9 mb 0.00 in0.0 mm 0.00 in0.0 mm 0.24 in6.1 mm
12:02 PM 19.1°F-7.2°C 9.3°F-12.6°C 65% 5.0 mph NW8.0 kmh NW 10.0 mph16.1 kmh 30.59 in1035.9 mb 0.00 in0.0 mm 0.00 in0.0 mm 0.24 in6.1 mm
12:04 PM 19.1°F-7.2°C 8.9°F-12.8°C 64% 5.0 mph NW8.0 kmh NW 14.0 mph22.5 kmh 30.58 in1035.6 mb 0.00 in0.0 mm 0.00 in0.0 mm 0.24 in6.1 mm
12:06 PM 19.1°F-7.2°C 8.9°F-12.8°C 64% 6.0 mph NW9.7 kmh NW 14.0 mph22.5 kmh 30.58 in1035.6 mb 0.00 in0.0 mm 0.00 in0.0 mm 0.24 in6.1 mm
12:08 PM 19.2°F-7.1°C 9.4°F-12.6°C 65% 5.0 mph NW8.0 kmh NW 14.0 mph22.5 kmh 30.58 in1035.6 mb 0.00 in0.0 mm 0.00 in0.0 mm 0.24 in6.1 mm
12:10 PM 19.3°F-7.1°C 9.8°F-12.3°C 66% 5.0 mph WNW8.0 kmh WNW 14.0 mph22.5 kmh 30.58 in1035.6 mb 0.00 in0.0 mm 0.00 in0.0 mm 0.24 in6.1 mm
12:12 PM 19.4°F-7.0°C 9.5°F-12.5°C 65% 6.0 mph WNW9.7 kmh WNW 14.0 mph22.5 kmh 30.58 in1035.6 mb 0.00 in0.0 mm 0.00 in0.0 mm 0.24 in6.1 mm
12:14 PM 19.5°F-6.9°C 9.6°F-12.4°C 65% 5.0 mph WNW8.0 kmh WNW 13.0 mph20.9 kmh 30.58 in1035.6 mb 0.00 in0.0 mm 0.00 in0.0 mm 0.24 in6.1 mm
12:16 PM 19.6°F-6.9°C 9.7°F-12.4°C 65% 5.0 mph WNW8.0 kmh WNW 13.0 mph20.9 kmh 30.58 in1035.6 mb 0.00 in0.0 mm 0.00 in0.0 mm 0.24 in6.1 mm
12:18 PM 19.7°F-6.8°C 10.2°F-12.1°C 66% 5.0 mph WNW8.0 kmh WNW 13.0 mph20.9 kmh 30.58 in1035.6 mb 0.00 in0.0 mm 0.00 in0.0 mm 0.24 in6.1 mm
12:20 PM 19.7°F-6.8°C 9.8°F-12.3°C 65% 5.0 mph WNW8.0 kmh WNW 13.0 mph20.9 kmh 30.58 in1035.6 mb 0.00 in0.0 mm 0.00 in0.0 mm 0.24 in6.1 mm
12:22 PM 19.7°F-6.8°C 9.8°F-12.3°C 65% 5.0 mph WNW8.0 kmh WNW 11.0 mph17.7 kmh 30.58 in1035.6 mb 0.00 in0.0 mm 0.00 in0.0 mm 0.24 in6.1 mm
12:24 PM 19.8°F-6.8°C 9.9°F-12.3°C 65% 5.0 mph WNW8.0 kmh WNW 11.0 mph17.7 kmh 30.58 in1035.6 mb 0.00 in0.0 mm 0.00 in0.0 mm 0.24 in6.1 mm
12:26 PM 19.8°F-6.8°C 9.9°F-12.3°C 65% 6.0 mph WNW9.7 kmh WNW 11.0 mph17.7 kmh 30.58 in1035.6 mb 0.00 in0.0 mm 0.00 in0.0 mm 0.24 in6.1 mm
12:28 PM 19.9°F-6.7°C 10.0°F-12.2°C 65% 6.0 mph WNW9.7 kmh WNW 11.0 mph17.7 kmh 30.57 in1035.2 mb 0.00 in0.0 mm 0.00 in0.0 mm 0.24 in6.1 mm
12:30 PM 19.9°F-6.7°C 9.7°F-12.4°C 64% 5.0 mph NW8.0 kmh NW 10.0 mph16.1 kmh 30.57 in1035.2 mb 0.00 in0.0 mm 0.00 in0.0 mm 0.24 in6.1 mm
12:32 PM 19.9°F-6.7°C 9.7°F-12.4°C 64% 5.0 mph NW8.0 kmh NW 11.0 mph17.7 kmh 30.58 in1035.6 mb 0.00 in0.0 mm 0.00 in0.0 mm 0.24 in6.1 mm
12:34 PM 19.9°F-6.7°C 9.3°F-12.6°C 63% 5.0 mph NW8.0 kmh NW 11.0 mph17.7 kmh 30.57 in1035.2 mb 0.00 in0.0 mm 0.00 in0.0 mm 0.24 in6.1 mm
12:36 PM 20.0°F-6.7°C 9.4°F-12.6°C 63% 5.0 mph NW8.0 kmh NW 11.0 mph17.7 kmh 30.57 in1035.2 mb 0.00 in0.0 mm 0.00 in0.0 mm 0.24 in6.1 mm
12:38 PM 20.0°F-6.7°C 9.8°F-12.3°C 64% 5.0 mph NW8.0 kmh NW 12.0 mph19.3 kmh 30.57 in1035.2 mb 0.00 in0.0 mm 0.00 in0.0 mm 0.24 in6.1 mm
12:40 PM 20.0°F-6.7°C 9.4°F-12.6°C 63% 5.0 mph NW8.0 kmh NW 12.0 mph19.3 kmh 30.57 in1035.2 mb 0.00 in0.0 mm 0.00 in0.0 mm 0.24 in6.1 mm
12:42 PM 19.9°F-6.7°C 9.3°F-12.6°C 63% 5.0 mph NW8.0 kmh NW 12.0 mph19.3 kmh 30.57 in1035.2 mb 0.00 in0.0 mm 0.00 in0.0 mm 0.24 in6.1 mm
12:44 PM 19.8°F-6.8°C 9.2°F-12.7°C 63% 5.0 mph NW8.0 kmh NW 12.0 mph19.3 kmh 30.57 in1035.2 mb 0.00 in0.0 mm 0.00 in0.0 mm 0.24 in6.1 mm
12:46 PM 19.8°F-6.8°C 8.9°F-12.8°C 62% 5.0 mph NW8.0 kmh NW 12.0 mph19.3 kmh 30.57 in1035.2 mb 0.00 in0.0 mm 0.00 in0.0 mm 0.24 in6.1 mm
12:48 PM 19.8°F-6.8°C 8.5°F-13.1°C 61% 6.0 mph WNW9.7 kmh WNW 11.0 mph17.7 kmh 30.57 in1035.2 mb 0.00 in0.0 mm 0.00 in0.0 mm 0.24 in6.1 mm
12:50 PM 19.8°F-6.8°C 8.9°F-12.8°C 62% 6.0 mph WNW9.7 kmh WNW 11.0 mph17.7 kmh 30.57 in1035.2 mb 0.00 in0.0 mm 0.00 in0.0 mm 0.24 in6.1 mm
12:52 PM 19.8°F-6.8°C 8.5°F-13.1°C 61% 6.0 mph WNW9.7 kmh WNW 11.0 mph17.7 kmh 30.57 in1035.2 mb 0.00 in0.0 mm 0.00 in0.0 mm 0.24 in6.1 mm
12:54 PM 19.9°F-6.7°C 8.6°F-13.0°C 61% 6.0 mph WNW9.7 kmh WNW 11.0 mph17.7 kmh 30.57 in1035.2 mb 0.00 in0.0 mm 0.00 in0.0 mm 0.24 in6.1 mm
12:56 PM 19.9°F-6.7°C 9.0°F-12.8°C 62% 6.0 mph WNW9.7 kmh WNW 11.0 mph17.7 kmh 30.57 in1035.2 mb 0.00 in0.0 mm 0.00 in0.0 mm 0.24 in6.1 mm
12:58 PM 19.9°F-6.7°C 9.0°F-12.8°C 62% 5.0 mph WNW8.0 kmh WNW 11.0 mph17.7 kmh 30.57 in1035.2 mb 0.00 in0.0 mm 0.00 in0.0 mm 0.24 in6.1 mm
01:00 PM 19.8°F-6.8°C 8.5°F-13.1°C 61% 5.0 mph NW8.0 kmh NW 11.0 mph17.7 kmh 30.57 in1035.2 mb 0.00 in0.0 mm 0.00 in0.0 mm 0.24 in6.1 mm
01:02 PM 19.8°F-6.8°C 9.2°F-12.7°C 63% 5.0 mph NW8.0 kmh NW 11.0 mph17.7 kmh 30.57 in1035.2 mb 0.00 in0.0 mm 0.00 in0.0 mm 0.24 in6.1 mm
01:04 PM 19.8°F-6.8°C 8.9°F-12.8°C 62% 4.0 mph NW6.4 kmh NW 10.0 mph16.1 kmh 30.57 in1035.2 mb 0.00 in0.0 mm 0.00 in0.0 mm 0.24 in6.1 mm
01:06 PM 19.7°F-6.8°C 8.8°F-12.9°C 62% 5.0 mph NW8.0 kmh NW 10.0 mph16.1 kmh 30.57 in1035.2 mb 0.00 in0.0 mm 0.00 in0.0 mm 0.24 in6.1 mm
01:08 PM 19.8°F-6.8°C 8.9°F-12.8°C 62% 5.0 mph NW8.0 kmh NW 10.0 mph16.1 kmh 30.56 in1034.9 mb 0.00 in0.0 mm 0.00 in0.0 mm 0.24 in6.1 mm
01:10 PM 19.9°F-6.7°C 9.7°F-12.4°C 64% 5.0 mph NW8.0 kmh NW 10.0 mph16.1 kmh 30.56 in1034.9 mb 0.00 in0.0 mm 0.00 in0.0 mm 0.24 in6.1 mm
01:12 PM 19.9°F-6.7°C 9.3°F-12.6°C 63% 5.0 mph NW8.0 kmh NW 10.0 mph16.1 kmh 30.56 in1034.9 mb 0.00 in0.0 mm 0.00 in0.0 mm 0.24 in6.1 mm
01:14 PM 19.9°F-6.7°C 9.0°F-12.8°C 62% 5.0 mph NW8.0 kmh NW 10.0 mph16.1 kmh 30.56 in1034.9 mb 0.00 in0.0 mm 0.00 in0.0 mm 0.24 in6.1 mm
01:16 PM 19.9°F-6.7°C 8.6°F-13.0°C 61% 5.0 mph NW8.0 kmh NW 9.0 mph14.5 kmh 30.56 in1034.9 mb 0.00 in0.0 mm 0.00 in0.0 mm 0.24 in6.1 mm
01:18 PM 19.8°F-6.8°C 8.5°F-13.1°C 61% 5.0 mph NW8.0 kmh NW 9.0 mph14.5 kmh 30.56 in1034.9 mb 0.00 in0.0 mm 0.00 in0.0 mm 0.24 in6.1 mm
01:20 PM 19.8°F-6.8°C 8.1°F-13.3°C 60% 5.0 mph NW8.0 kmh NW 10.0 mph16.1 kmh 30.56 in1034.9 mb 0.00 in0.0 mm 0.00 in0.0 mm 0.24 in6.1 mm
01:22 PM 19.8°F-6.8°C 8.5°F-13.1°C 61% 4.0 mph WNW6.4 kmh WNW 10.0 mph16.1 kmh 30.56 in1034.9 mb 0.00 in0.0 mm 0.00 in0.0 mm 0.24 in6.1 mm
01:24 PM 19.8°F-6.8°C 8.1°F-13.3°C 60% 5.0 mph WNW8.0 kmh WNW 10.0 mph16.1 kmh 30.56 in1034.9 mb 0.00 in0.0 mm 0.00 in0.0 mm 0.24 in6.1 mm
01:26 PM 19.7°F-6.8°C 8.0°F-13.3°C 60% 5.0 mph WNW8.0 kmh WNW 10.0 mph16.1 kmh 30.56 in1034.9 mb 0.00 in0.0 mm 0.00 in0.0 mm 0.24 in6.1 mm
01:28 PM 19.7°F-6.8°C 8.4°F-13.1°C 61% 5.0 mph WNW8.0 kmh WNW 10.0 mph16.1 kmh 30.56 in1034.9 mb 0.00 in0.0 mm 0.00 in0.0 mm 0.24 in6.1 mm
01:30 PM 19.7°F-6.8°C 8.0°F-13.3°C 60% 6.0 mph WNW9.7 kmh WNW 10.0 mph16.1 kmh 30.56 in1034.9 mb 0.00 in0.0 mm 0.00 in0.0 mm 0.24 in6.1 mm
01:32 PM 19.6°F-6.9°C 8.0°F-13.3°C 60% 6.0 mph WNW9.7 kmh WNW 10.0 mph16.1 kmh 30.56 in1034.9 mb 0.00 in0.0 mm 0.00 in0.0 mm 0.24 in6.1 mm
01:34 PM 19.6°F-6.9°C 8.0°F-13.3°C 60% 6.0 mph WNW9.7 kmh WNW 10.0 mph16.1 kmh 30.56 in1034.9 mb 0.00 in0.0 mm 0.00 in0.0 mm 0.24 in6.1 mm
01:36 PM 19.7°F-6.8°C 8.4°F-13.1°C 61% 5.0 mph WNW8.0 kmh WNW 10.0 mph16.1 kmh 30.56 in1034.9 mb 0.00 in0.0 mm 0.00 in0.0 mm 0.24 in6.1 mm
01:38 PM 19.8°F-6.8°C 8.9°F-12.8°C 62% 6.0 mph W9.7 kmh W 13.0 mph20.9 kmh 30.56 in1034.9 mb 0.00 in0.0 mm 0.00 in0.0 mm 0.24 in6.1 mm
01:40 PM 19.8°F-6.8°C 8.5°F-13.1°C 61% 6.0 mph WNW9.7 kmh WNW 13.0 mph20.9 kmh 30.56 in1034.9 mb 0.00 in0.0 mm 0.00 in0.0 mm 0.24 in6.1 mm
01:42 PM 19.7°F-6.8°C 8.0°F-13.3°C 60% 5.0 mph WNW8.0 kmh WNW 13.0 mph20.9 kmh 30.56 in1034.9 mb 0.00 in0.0 mm 0.00 in0.0 mm 0.24 in6.1 mm
01:44 PM 19.7°F-6.8°C 8.0°F-13.3°C 60% 5.0 mph WNW8.0 kmh WNW 13.0 mph20.9 kmh 30.56 in1034.9 mb 0.00 in0.0 mm 0.00 in0.0 mm 0.24 in6.1 mm
01:46 PM 19.7°F-6.8°C 8.0°F-13.3°C 60% 5.0 mph W8.0 kmh W 13.0 mph20.9 kmh 30.56 in1034.9 mb 0.00 in0.0 mm 0.00 in0.0 mm 0.24 in6.1 mm
01:48 PM 19.8°F-6.8°C 8.1°F-13.3°C 60% 5.0 mph WNW8.0 kmh WNW 10.0 mph16.1 kmh 30.56 in1034.9 mb 0.00 in0.0 mm 0.00 in0.0 mm 0.24 in6.1 mm
01:50 PM 19.8°F-6.8°C 8.1°F-13.3°C 60% 4.0 mph W6.4 kmh W 9.0 mph14.5 kmh 30.56 in1034.9 mb 0.00 in0.0 mm 0.00 in0.0 mm 0.24 in6.1 mm
01:52 PM 19.8°F-6.8°C 8.5°F-13.1°C 61% 4.0 mph W6.4 kmh W 10.0 mph16.1 kmh 30.55 in1034.5 mb 0.00 in0.0 mm 0.00 in0.0 mm 0.24 in6.1 mm
01:54 PM 19.8°F-6.8°C 8.1°F-13.3°C 60% 4.0 mph W6.4 kmh W 10.0 mph16.1 kmh 30.56 in1034.9 mb 0.00 in0.0 mm 0.00 in0.0 mm 0.24 in6.1 mm
01:56 PM 19.8°F-6.8°C 7.8°F-13.4°C 59% 5.0 mph W8.0 kmh W 10.0 mph16.1 kmh 30.55 in1034.5 mb 0.00 in0.0 mm 0.00 in0.0 mm 0.24 in6.1 mm
01:58 PM 19.8°F-6.8°C 8.1°F-13.3°C 60% 5.0 mph W8.0 kmh W 10.0 mph16.1 kmh 30.55 in1034.5 mb 0.00 in0.0 mm 0.00 in0.0 mm 0.24 in6.1 mm
02:00 PM 19.7°F-6.8°C 8.0°F-13.3°C 60% 5.0 mph WNW8.0 kmh WNW 10.0 mph16.1 kmh 30.55 in1034.5 mb 0.00 in0.0 mm 0.00 in0.0 mm 0.24 in6.1 mm
02:02 PM 19.6°F-6.9°C 7.6°F-13.6°C 59% 5.0 mph WNW8.0 kmh WNW 10.0 mph16.1 kmh 30.55 in1034.5 mb 0.00 in0.0 mm 0.00 in0.0 mm 0.24 in6.1 mm
02:04 PM 19.6°F-6.9°C 7.6°F-13.6°C 59% 5.0 mph WNW8.0 kmh WNW 10.0 mph16.1 kmh 30.55 in1034.5 mb 0.00 in0.0 mm 0.00 in0.0 mm 0.24 in6.1 mm
02:06 PM 19.6°F-6.9°C 8.3°F-13.2°C 61% 5.0 mph WNW8.0 kmh WNW 12.0 mph19.3 kmh 30.55 in1034.5 mb 0.00 in0.0 mm 0.00 in0.0 mm 0.24 in6.1 mm
02:08 PM 19.5°F-6.9°C 7.9°F-13.4°C 60% 5.0 mph WNW8.0 kmh WNW 12.0 mph19.3 kmh 30.55 in1034.5 mb 0.00 in0.0 mm 0.00 in0.0 mm 0.24 in6.1 mm
02:10 PM 19.4°F-7.0°C 7.8°F-13.4°C 60% 5.0 mph WNW8.0 kmh WNW 12.0 mph19.3 kmh 30.55 in1034.5 mb 0.00 in0.0 mm 0.00 in0.0 mm 0.24 in6.1 mm
02:12 PM 19.4°F-7.0°C 7.8°F-13.4°C 60% 5.0 mph WNW8.0 kmh WNW 12.0 mph19.3 kmh 30.55 in1034.5 mb 0.00 in0.0 mm 0.00 in0.0 mm 0.24 in6.1 mm
02:14 PM 19.3°F-7.1°C 7.3°F-13.7°C 59% 5.0 mph WNW8.0 kmh WNW 12.0 mph19.3 kmh 30.55 in1034.5 mb 0.00 in0.0 mm 0.00 in0.0 mm 0.24 in6.1 mm
02:16 PM 19.3°F-7.1°C 7.7°F-13.5°C 60% 5.0 mph WNW8.0 kmh WNW 12.0 mph19.3 kmh 30.55 in1034.5 mb 0.00 in0.0 mm 0.00 in0.0 mm 0.24 in6.1 mm
02:18 PM 19.3°F-7.1°C 7.7°F-13.5°C 60% 5.0 mph WNW8.0 kmh WNW 11.0 mph17.7 kmh 30.55 in1034.5 mb 0.00 in0.0 mm 0.00 in0.0 mm 0.24 in6.1 mm
02:20 PM 19.3°F-7.1°C 7.7°F-13.5°C 60% 5.0 mph WNW8.0 kmh WNW 11.0 mph17.7 kmh 30.56 in1034.9 mb 0.00 in0.0 mm 0.00 in0.0 mm 0.24 in6.1 mm
02:22 PM 19.1°F-7.2°C 7.5°F-13.6°C 60% 5.0 mph WNW8.0 kmh WNW 11.0 mph17.7 kmh 30.56 in1034.9 mb 0.00 in0.0 mm 0.00 in0.0 mm 0.24 in6.1 mm
02:24 PM 19.0°F-7.2°C 7.4°F-13.7°C 60% 5.0 mph WNW8.0 kmh WNW 11.0 mph17.7 kmh 30.56 in1034.9 mb 0.00 in0.0 mm 0.00 in0.0 mm 0.24 in6.1 mm
02:26 PM 19.0°F-7.2°C 7.4°F-13.7°C 60% 5.0 mph WNW8.0 kmh WNW 11.0 mph17.7 kmh 30.56 in1034.9 mb 0.00 in0.0 mm 0.00 in0.0 mm 0.24 in6.1 mm
02:28 PM 18.9°F-7.3°C 7.3°F-13.7°C 60% 5.0 mph WNW8.0 kmh WNW 11.0 mph17.7 kmh 30.56 in1034.9 mb 0.00 in0.0 mm 0.00 in0.0 mm 0.24 in6.1 mm
02:30 PM 18.9°F-7.3°C 7.3°F-13.7°C 60% 5.0 mph WNW8.0 kmh WNW 11.0 mph17.7 kmh 30.56 in1034.9 mb 0.00 in0.0 mm 0.00 in0.0 mm 0.24 in6.1 mm
02:32 PM 18.8°F-7.3°C 7.2°F-13.8°C 60% 5.0 mph WNW8.0 kmh WNW 11.0 mph17.7 kmh 30.56 in1034.9 mb 0.00 in0.0 mm 0.00 in0.0 mm 0.24 in6.1 mm
02:34 PM 18.8°F-7.3°C 6.8°F-14.0°C 59% 5.0 mph WNW8.0 kmh WNW 11.0 mph17.7 kmh 30.56 in1034.9 mb 0.00 in0.0 mm 0.00 in0.0 mm 0.24 in6.1 mm
02:36 PM 18.7°F-7.4°C 6.7°F-14.1°C 59% 5.0 mph WNW8.0 kmh WNW 11.0 mph17.7 kmh 30.56 in1034.9 mb 0.00 in0.0 mm 0.00 in0.0 mm 0.24 in6.1 mm
02:38 PM 18.6°F-7.4°C 7.0°F-13.9°C 60% 5.0 mph WNW8.0 kmh WNW 11.0 mph17.7 kmh 30.56 in1034.9 mb 0.00 in0.0 mm 0.00 in0.0 mm 0.24 in6.1 mm
02:40 PM 18.6°F-7.4°C 7.0°F-13.9°C 60% 5.0 mph WNW8.0 kmh WNW 11.0 mph17.7 kmh 30.56 in1034.9 mb 0.00 in0.0 mm 0.00 in0.0 mm 0.24 in6.1 mm
02:42 PM 18.6°F-7.4°C 7.0°F-13.9°C 60% 5.0 mph WNW8.0 kmh WNW 11.0 mph17.7 kmh 30.56 in1034.9 mb 0.00 in0.0 mm 0.00 in0.0 mm 0.24 in6.1 mm
02:44 PM 18.5°F-7.5°C 6.5°F-14.2°C 59% 5.0 mph WNW8.0 kmh WNW 11.0 mph17.7 kmh 30.56 in1034.9 mb 0.00 in0.0 mm 0.00 in0.0 mm 0.24 in6.1 mm
02:46 PM 18.4°F-7.6°C 6.4°F-14.2°C 59% 5.0 mph WNW8.0 kmh WNW 10.0 mph16.1 kmh 30.56 in1034.9 mb 0.00 in0.0 mm 0.00 in0.0 mm 0.24 in6.1 mm
02:48 PM 18.4°F-7.6°C 6.8°F-14.0°C 60% 5.0 mph WNW8.0 kmh WNW 10.0 mph16.1 kmh 30.56 in1034.9 mb 0.00 in0.0 mm 0.00 in0.0 mm 0.24 in6.1 mm
02:50 PM 18.3°F-7.6°C 6.7°F-14.1°C 60% 5.0 mph WNW8.0 kmh WNW 10.0 mph16.1 kmh 30.56 in1034.9 mb 0.00 in0.0 mm 0.00 in0.0 mm 0.24 in6.1 mm
02:52 PM 18.3°F-7.6°C 7.1°F-13.8°C 61% 5.0 mph WNW8.0 kmh WNW 10.0 mph16.1 kmh 30.56 in1034.9 mb 0.00 in0.0 mm 0.00 in0.0 mm 0.24 in6.1 mm
02:54 PM 18.2°F-7.7°C 7.3°F-13.7°C 62% 5.0 mph WNW8.0 kmh WNW 10.0 mph16.1 kmh 30.56 in1034.9 mb 0.00 in0.0 mm 0.00 in0.0 mm 0.24 in6.1 mm
02:56 PM 18.2°F-7.7°C 7.3°F-13.7°C 62% 5.0 mph WNW8.0 kmh WNW 9.0 mph14.5 kmh 30.56 in1034.9 mb 0.00 in0.0 mm 0.00 in0.0 mm 0.24 in6.1 mm
02:58 PM 18.1°F-7.7°C 7.3°F-13.7°C 62% 4.0 mph WNW6.4 kmh WNW 9.0 mph14.5 kmh 30.56 in1034.9 mb 0.00 in0.0 mm 0.00 in0.0 mm 0.24 in6.1 mm
03:00 PM 18.1°F-7.7°C 7.3°F-13.7°C 62% 4.0 mph WNW6.4 kmh WNW 8.0 mph12.9 kmh 30.56 in1034.9 mb 0.00 in0.0 mm 0.00 in0.0 mm 0.24 in6.1 mm
03:02 PM 18.1°F-7.7°C 7.3°F-13.7°C 62% 4.0 mph WNW6.4 kmh WNW 8.0 mph12.9 kmh 30.56 in1034.9 mb 0.00 in0.0 mm 0.00 in0.0 mm 0.24 in6.1 mm
03:04 PM 18.1°F-7.7°C 7.3°F-13.7°C 62% 4.0 mph WNW6.4 kmh WNW 8.0 mph12.9 kmh 30.56 in1034.9 mb 0.00 in0.0 mm 0.00 in0.0 mm 0.24 in6.1 mm
03:06 PM 18.1°F-7.7°C 7.3°F-13.7°C 62% 4.0 mph WNW6.4 kmh WNW 8.0 mph12.9 kmh 30.56 in1034.9 mb 0.00 in0.0 mm 0.00 in0.0 mm 0.24 in6.1 mm
03:08 PM 18.1°F-7.7°C 7.6°F-13.6°C 63% 4.0 mph WNW6.4 kmh WNW 10.0 mph16.1 kmh 30.56 in1034.9 mb 0.00 in0.0 mm 0.00 in0.0 mm 0.24 in6.1 mm
03:10 PM 18.1°F-7.7°C 7.6°F-13.6°C 63% 4.0 mph WNW6.4 kmh WNW 10.0 mph16.1 kmh 30.56 in1034.9 mb 0.00 in0.0 mm 0.00 in0.0 mm 0.24 in6.1 mm
03:12 PM 18.1°F-7.7°C 8.0°F-13.3°C 64% 3.0 mph WNW4.8 kmh WNW 10.0 mph16.1 kmh 30.56 in1034.9 mb 0.00 in0.0 mm 0.00 in0.0 mm 0.24 in6.1 mm
03:14 PM 18.1°F-7.7°C 8.0°F-13.3°C 64% 3.0 mph WNW4.8 kmh WNW 10.0 mph16.1 kmh 30.56 in1034.9 mb 0.00 in0.0 mm 0.00 in0.0 mm 0.24 in6.1 mm
03:16 PM 18.1°F-7.7°C 8.0°F-13.3°C 64% 3.0 mph WNW4.8 kmh WNW 10.0 mph16.1 kmh 30.56 in1034.9 mb 0.00 in0.0 mm 0.00 in0.0 mm 0.24 in6.1 mm
03:18 PM 18.1°F-7.7°C 8.3°F-13.2°C 65% 3.0 mph W4.8 kmh W 7.0 mph11.3 kmh 30.56 in1034.9 mb 0.00 in0.0 mm 0.00 in0.0 mm 0.24 in6.1 mm
03:20 PM 18.1°F-7.7°C 8.0°F-13.3°C 64% 2.0 mph W3.2 kmh W 6.0 mph9.7 kmh 30.56 in1034.9 mb 0.00 in0.0 mm 0.00 in0.0 mm 0.24 in6.1 mm
03:22 PM 18.1°F-7.7°C 8.3°F-13.2°C 65% 2.0 mph W3.2 kmh W 6.0 mph9.7 kmh 30.56 in1034.9 mb 0.00 in0.0 mm 0.00 in0.0 mm 0.24 in6.1 mm
03:24 PM 18.0°F-7.8°C 8.2°F-13.2°C 65% 2.0 mph W3.2 kmh W 6.0 mph9.7 kmh 30.56 in1034.9 mb 0.00 in0.0 mm 0.00 in0.0 mm 0.24 in6.1 mm
03:26 PM 18.0°F-7.8°C 8.2°F-13.2°C 65% 3.0 mph W4.8 kmh W 6.0 mph9.7 kmh 30.56 in1034.9 mb 0.00 in0.0 mm 0.00 in0.0 mm 0.24 in6.1 mm
03:28 PM 17.9°F-7.8°C 7.8°F-13.4°C 64% 3.0 mph W4.8 kmh W 7.0 mph11.3 kmh 30.56 in1034.9 mb 0.00 in0.0 mm 0.00 in0.0 mm 0.24 in6.1 mm
03:30 PM 17.7°F-7.9°C 7.6°F-13.6°C 64% 3.0 mph W4.8 kmh W 7.0 mph11.3 kmh 30.56 in1034.9 mb 0.00 in0.0 mm 0.00 in0.0 mm 0.24 in6.1 mm
03:32 PM 17.6°F-8.0°C 7.8°F-13.4°C 65% 3.0 mph W4.8 kmh W 7.0 mph11.3 kmh 30.56 in1034.9 mb 0.00 in0.0 mm 0.00 in0.0 mm 0.24 in6.1 mm
03:34 PM 17.5°F-8.1°C 7.4°F-13.7°C 64% 3.0 mph W4.8 kmh W 7.0 mph11.3 kmh 30.56 in1034.9 mb 0.00 in0.0 mm 0.00 in0.0 mm 0.24 in6.1 mm
03:36 PM 17.4°F-8.1°C 7.3°F-13.7°C 64% 2.0 mph W3.2 kmh W 7.0 mph11.3 kmh 30.56 in1034.9 mb 0.00 in0.0 mm 0.00 in0.0 mm 0.24 in6.1 mm
03:38 PM 17.3°F-8.2°C 7.5°F-13.6°C 65% 2.0 mph W3.2 kmh W 6.0 mph9.7 kmh 30.56 in1034.9 mb 0.00 in0.0 mm 0.00 in0.0 mm 0.24 in6.1 mm
03:40 PM 17.2°F-8.2°C 7.4°F-13.7°C 65% 3.0 mph W4.8 kmh W 6.0 mph9.7 kmh 30.56 in1034.9 mb 0.00 in0.0 mm 0.00 in0.0 mm 0.24 in6.1 mm
03:42 PM 17.1°F-8.3°C 7.0°F-13.9°C 64% 2.0 mph W3.2 kmh W 6.0 mph9.7 kmh 30.56 in1034.9 mb 0.00 in0.0 mm 0.00 in0.0 mm 0.24 in6.1 mm
03:44 PM 17.0°F-8.3°C 7.3°F-13.7°C 65% 2.0 mph W3.2 kmh W 6.0 mph9.7 kmh 30.56 in1034.9 mb 0.00 in0.0 mm 0.00 in0.0 mm 0.24 in6.1 mm
03:46 PM 16.8°F-8.4°C 7.1°F-13.8°C 65% 2.0 mph W3.2 kmh W 6.0 mph9.7 kmh 30.56 in1034.9 mb 0.00 in0.0 mm 0.00 in0.0 mm 0.24 in6.1 mm
03:48 PM 16.6°F-8.6°C 6.9°F-13.9°C 65% 2.0 mph W3.2 kmh W 6.0 mph9.7 kmh 30.56 in1034.9 mb 0.00 in0.0 mm 0.00 in0.0 mm 0.24 in6.1 mm
03:50 PM 16.5°F-8.6°C 6.8°F-14.0°C 65% 2.0 mph W3.2 kmh W 4.0 mph6.4 kmh 30.56 in1034.9 mb 0.00 in0.0 mm 0.00 in0.0 mm 0.24 in6.1 mm
03:52 PM 16.4°F-8.7°C 7.0°F-13.9°C 66% 2.0 mph W3.2 kmh W 6.0 mph9.7 kmh 30.56 in1034.9 mb 0.00 in0.0 mm 0.00 in0.0 mm 0.24 in6.1 mm
03:54 PM 16.2°F-8.8°C 6.8°F-14.0°C 66% 2.0 mph WSW3.2 kmh WSW 6.0 mph9.7 kmh 30.56 in1034.9 mb 0.00 in0.0 mm 0.00 in0.0 mm 0.24 in6.1 mm
03:56 PM 16.1°F-8.8°C 6.7°F-14.1°C 66% 2.0 mph WSW3.2 kmh WSW 6.0 mph9.7 kmh 30.56 in1034.9 mb 0.00 in0.0 mm 0.00 in0.0 mm 0.24 in6.1 mm
03:58 PM 15.9°F-8.9°C 6.9°F-13.9°C 67% 2.0 mph WSW3.2 kmh WSW 6.0 mph9.7 kmh 30.56 in1034.9 mb 0.00 in0.0 mm 0.00 in0.0 mm 0.24 in6.1 mm
04:00 PM 15.8°F-9.0°C 6.8°F-14.0°C 67% 2.0 mph WSW3.2 kmh WSW 6.0 mph9.7 kmh 30.56 in1034.9 mb 0.00 in0.0 mm 0.00 in0.0 mm 0.24 in6.1 mm
04:02 PM 15.7°F-9.1°C 6.7°F-14.1°C 67% 2.0 mph WSW3.2 kmh WSW 4.0 mph6.4 kmh 30.56 in1034.9 mb 0.00 in0.0 mm 0.00 in0.0 mm 0.24 in6.1 mm
04:04 PM 15.5°F-9.2°C 6.5°F-14.2°C 67% 2.0 mph WSW3.2 kmh WSW 4.0 mph6.4 kmh 30.56 in1034.9 mb 0.00 in0.0 mm 0.00 in0.0 mm 0.24 in6.1 mm
04:06 PM 15.4°F-9.2°C 6.7°F-14.1°C 68% 2.0 mph WSW3.2 kmh WSW 4.0 mph6.4 kmh 30.56 in1034.9 mb 0.00 in0.0 mm 0.00 in0.0 mm 0.24 in6.1 mm
04:08 PM 15.3°F-9.3°C 6.6°F-14.1°C 68% 2.0 mph WSW3.2 kmh WSW 4.0 mph6.4 kmh 30.56 in1034.9 mb 0.00 in0.0 mm 0.00 in0.0 mm 0.24 in6.1 mm
04:10 PM 15.2°F-9.3°C 6.5°F-14.2°C 68% 2.0 mph WSW3.2 kmh WSW 4.0 mph6.4 kmh 30.56 in1034.9 mb 0.00 in0.0 mm 0.00 in0.0 mm 0.24 in6.1 mm
04:12 PM 15.0°F-9.4°C 6.3°F-14.3°C 68% 2.0 mph W3.2 kmh W 4.0 mph6.4 kmh 30.56 in1034.9 mb 0.00 in0.0 mm 0.00 in0.0 mm 0.24 in6.1 mm
04:14 PM 14.9°F-9.5°C 6.2°F-14.3°C 68% 2.0 mph W3.2 kmh W 4.0 mph6.4 kmh 30.56 in1034.9 mb 0.00 in0.0 mm 0.00 in0.0 mm 0.24 in6.1 mm
04:16 PM 14.8°F-9.6°C 6.1°F-14.4°C 68% 2.0 mph W3.2 kmh W 3.0 mph4.8 kmh 30.56 in1034.9 mb 0.00 in0.0 mm 0.00 in0.0 mm 0.24 in6.1 mm
04:18 PM 14.6°F-9.7°C 6.3°F-14.3°C 69% 1.0 mph W1.6 kmh W 3.0 mph4.8 kmh 30.56 in1034.9 mb 0.00 in0.0 mm 0.00 in0.0 mm 0.24 in6.1 mm
04:20 PM 14.5°F-9.7°C 6.2°F-14.3°C 69% 1.0 mph W1.6 kmh W 3.0 mph4.8 kmh 30.56 in1034.9 mb 0.00 in0.0 mm 0.00 in0.0 mm 0.24 in6.1 mm
04:22 PM 14.3°F-9.8°C 6.0°F-14.4°C 69% 1.0 mph W1.6 kmh W 3.0 mph4.8 kmh 30.56 in1034.9 mb 0.00 in0.0 mm 0.00 in0.0 mm 0.24 in6.1 mm
04:24 PM 14.2°F-9.9°C 5.9°F-14.5°C 69% 1.0 mph W1.6 kmh W 3.0 mph4.8 kmh 30.56 in1034.9 mb 0.00 in0.0 mm 0.00 in0.0 mm 0.24 in6.1 mm
04:26 PM 14.0°F-10.0°C 5.7°F-14.6°C 69% 1.0 mph W1.6 kmh W 3.0 mph4.8 kmh 30.56 in1034.9 mb 0.00 in0.0 mm 0.00 in0.0 mm 0.24 in6.1 mm
04:28 PM 13.9°F-10.1°C 5.9°F-14.5°C 70% 1.0 mph W1.6 kmh W 3.0 mph4.8 kmh 30.56 in1034.9 mb 0.00 in0.0 mm 0.00 in0.0 mm 0.24 in6.1 mm
04:30 PM 13.9°F-10.1°C 5.9°F-14.5°C 70% 1.0 mph W1.6 kmh W 2.0 mph3.2 kmh 30.56 in1034.9 mb 0.00 in0.0 mm 0.00 in0.0 mm 0.24 in6.1 mm
04:32 PM 13.7°F-10.2°C 6.0°F-14.4°C 71% 1.0 mph W1.6 kmh W 2.0 mph3.2 kmh 30.56 in1034.9 mb 0.00 in0.0 mm 0.00 in0.0 mm 0.24 in6.1 mm
04:34 PM 13.6°F-10.2°C 5.9°F-14.5°C 71% Calm Calm 2.0 mph3.2 kmh 30.56 in1034.9 mb 0.00 in0.0 mm 0.00 in0.0 mm 0.24 in6.1 mm
04:36 PM 13.5°F-10.3°C 5.8°F-14.6°C 71% Calm Calm 2.0 mph3.2 kmh 30.56 in1034.9 mb 0.00 in0.0 mm 0.00 in0.0 mm 0.24 in6.1 mm
04:38 PM 13.4°F-10.3°C 5.7°F-14.6°C 71% Calm Calm 2.0 mph3.2 kmh 30.56 in1034.9 mb 0.00 in0.0 mm 0.00 in0.0 mm 0.24 in6.1 mm
04:40 PM 13.3°F-10.4°C 5.6°F-14.7°C 71% 1.0 mph W1.6 kmh W 2.0 mph3.2 kmh 30.56 in1034.9 mb 0.00 in0.0 mm 0.00 in0.0 mm 0.24 in6.1 mm
04:42 PM 13.1°F-10.5°C 5.5°F-14.7°C 71% 1.0 mph W1.6 kmh W 2.0 mph3.2 kmh 30.56 in1034.9 mb 0.00 in0.0 mm 0.00 in0.0 mm 0.24 in6.1 mm
04:44 PM 13.0°F-10.6°C 5.4°F-14.8°C 71% 1.0 mph W1.6 kmh W 2.0 mph3.2 kmh 30.56 in1034.9 mb 0.00 in0.0 mm 0.00 in0.0 mm 0.24 in6.1 mm
04:46 PM 12.9°F-10.6°C 5.6°F-14.7°C 72% Calm Calm 2.0 mph3.2 kmh 30.56 in1034.9 mb 0.00 in0.0 mm 0.00 in0.0 mm 0.24 in6.1 mm
04:48 PM 12.8°F-10.7°C 5.5°F-14.7°C 72% Calm Calm 2.0 mph3.2 kmh 30.55 in1034.5 mb 0.00 in0.0 mm 0.00 in0.0 mm 0.24 in6.1 mm
04:50 PM 12.7°F-10.7°C 5.4°F-14.8°C 72% Calm Calm 1.0 mph1.6 kmh 30.56 in1034.9 mb 0.00 in0.0 mm 0.00 in0.0 mm 0.24 in6.1 mm
04:52 PM 12.6°F-10.8°C 5.3°F-14.8°C 72% Calm Calm 1.0 mph1.6 kmh 30.56 in1034.9 mb 0.00 in0.0 mm 0.00 in0.0 mm 0.24 in6.1 mm
04:54 PM 12.5°F-10.8°C 5.2°F-14.9°C 72% Calm Calm -- 30.56 in1034.9 mb 0.00 in0.0 mm 0.00 in0.0 mm 0.24 in6.1 mm
04:56 PM 12.4°F-10.9°C 5.4°F-14.8°C 73% Calm Calm -- 30.55 in1034.5 mb 0.00 in0.0 mm 0.00 in0.0 mm 0.24 in6.1 mm
04:58 PM 12.3°F-10.9°C 5.3°F-14.8°C 73% Calm Calm -- 30.55 in1034.5 mb 0.00 in0.0 mm 0.00 in0.0 mm 0.24 in6.1 mm
05:00 PM 12.1°F-11.1°C 5.1°F-14.9°C 73% Calm Calm -- 30.55 in1034.5 mb 0.00 in0.0 mm 0.00 in0.0 mm 0.24 in6.1 mm
05:02 PM 12.0°F-11.1°C 5.0°F-15.0°C 73% Calm Calm 1.0 mph1.6 kmh 30.56 in1034.9 mb 0.00 in0.0 mm 0.00 in0.0 mm 0.24 in6.1 mm
05:04 PM 11.9°F-11.2°C 4.9°F-15.1°C 73% Calm Calm 1.0 mph1.6 kmh 30.56 in1034.9 mb 0.00 in0.0 mm 0.00 in0.0 mm 0.24 in6.1 mm
05:06 PM 11.7°F-11.3°C 4.7°F-15.2°C 73% Calm Calm 1.0 mph1.6 kmh 30.56 in1034.9 mb 0.00 in0.0 mm 0.00 in0.0 mm 0.24 in6.1 mm
05:08 PM 11.5°F-11.4°C 4.5°F-15.3°C 73% Calm Calm 1.0 mph1.6 kmh 30.56 in1034.9 mb 0.00 in0.0 mm 0.00 in0.0 mm 0.24 in6.1 mm
05:10 PM 11.4°F-11.4°C 4.4°F-15.3°C 73% Calm Calm 1.0 mph1.6 kmh 30.56 in1034.9 mb 0.00 in0.0 mm 0.00 in0.0 mm 0.24 in6.1 mm
05:12 PM 11.3°F-11.5°C 4.3°F-15.4°C 73% Calm Calm 1.0 mph1.6 kmh 30.56 in1034.9 mb 0.00 in0.0 mm 0.00 in0.0 mm 0.24 in6.1 mm
05:14 PM 11.1°F-11.6°C 4.1°F-15.5°C 73% Calm Calm 1.0 mph1.6 kmh 30.56 in1034.9 mb 0.00 in0.0 mm 0.00 in0.0 mm 0.24 in6.1 mm
05:16 PM 11.0°F-11.7°C 4.0°F-15.6°C 73% Calm Calm 1.0 mph1.6 kmh 30.56 in1034.9 mb 0.00 in0.0 mm 0.00 in0.0 mm 0.24 in6.1 mm
05:18 PM 10.9°F-11.7°C 3.9°F-15.6°C 73% Calm Calm -- 30.56 in1034.9 mb 0.00 in0.0 mm 0.00 in0.0 mm 0.24 in6.1 mm
05:20 PM 10.8°F-11.8°C 3.8°F-15.7°C 73% Calm Calm -- 30.56 in1034.9 mb 0.00 in0.0 mm 0.00 in0.0 mm 0.24 in6.1 mm
05:22 PM 10.7°F-11.8°C 4.0°F-15.6°C 74% Calm Calm -- 30.56 in1034.9 mb 0.00 in0.0 mm 0.00 in0.0 mm 0.24 in6.1 mm
05:24 PM 10.6°F-11.9°C 3.9°F-15.6°C 74% Calm Calm -- 30.56 in1034.9 mb 0.00 in0.0 mm 0.00 in0.0 mm 0.24 in6.1 mm
05:26 PM 10.4°F-12.0°C 3.8°F-15.7°C 74% Calm Calm -- 30.56 in1034.9 mb 0.00 in0.0 mm 0.00 in0.0 mm 0.24 in6.1 mm
05:28 PM 10.3°F-12.1°C 3.7°F-15.7°C 74% Calm Calm -- 30.56 in1034.9 mb 0.00 in0.0 mm 0.00 in0.0 mm 0.24 in6.1 mm
05:30 PM 10.3°F-12.1°C 3.7°F-15.7°C 74% Calm Calm -- 30.57 in1035.2 mb 0.00 in0.0 mm 0.00 in0.0 mm 0.24 in6.1 mm
05:32 PM 10.1°F-12.2°C 3.5°F-15.8°C 74% Calm Calm -- 30.56 in1034.9 mb 0.00 in0.0 mm 0.00 in0.0 mm 0.24 in6.1 mm
05:34 PM 10.0°F-12.2°C 3.4°F-15.9°C 74% Calm Calm -- 30.56 in1034.9 mb 0.00 in0.0 mm 0.00 in0.0 mm 0.24 in6.1 mm
05:36 PM 9.9°F-12.3°C 3.3°F-15.9°C 74% Calm Calm -- 30.56 in1034.9 mb 0.00 in0.0 mm 0.00 in0.0 mm 0.24 in6.1 mm
05:38 PM 9.9°F-12.3°C 3.3°F-15.9°C 74% Calm Calm 1.0 mph1.6 kmh 30.56 in1034.9 mb 0.00 in0.0 mm 0.00 in0.0 mm 0.24 in6.1 mm
05:40 PM 9.7°F-12.4°C 3.1°F-16.1°C 74% Calm Calm 1.0 mph1.6 kmh 30.56 in1034.9 mb 0.00 in0.0 mm 0.00 in0.0 mm 0.24 in6.1 mm
05:42 PM 9.6°F-12.4°C 3.3°F-15.9°C 75% Calm Calm 1.0 mph1.6 kmh 30.56 in1034.9 mb 0.00 in0.0 mm 0.00 in0.0 mm 0.24 in6.1 mm
05:44 PM 9.5°F-12.5°C 3.2°F-16.0°C 75% Calm Calm 1.0 mph1.6 kmh 30.56 in1034.9 mb 0.00 in0.0 mm 0.00 in0.0 mm 0.24 in6.1 mm
05:46 PM 9.4°F-12.6°C 3.1°F-16.1°C 75% Calm Calm 1.0 mph1.6 kmh 30.56 in1034.9 mb 0.00 in0.0 mm 0.00 in0.0 mm 0.24 in6.1 mm
05:48 PM 9.2°F-12.7°C 2.9°F-16.2°C 75% Calm Calm 1.0 mph1.6 kmh 30.56 in1034.9 mb 0.00 in0.0 mm 0.00 in0.0 mm 0.24 in6.1 mm
05:50 PM 9.1°F-12.7°C 3.1°F-16.1°C 76% Calm Calm 1.0 mph1.6 kmh 30.56 in1034.9 mb 0.00 in0.0 mm 0.00 in0.0 mm 0.24 in6.1 mm
05:52 PM 9.0°F-12.8°C 3.0°F-16.1°C 76% Calm Calm 1.0 mph1.6 kmh 30.56 in1034.9 mb 0.00 in0.0 mm 0.00 in0.0 mm 0.24 in6.1 mm
05:54 PM 9.0°F-12.8°C 3.0°F-16.1°C 76% Calm Calm 2.0 mph3.2 kmh 30.56 in1034.9 mb 0.00 in0.0 mm 0.00 in0.0 mm 0.24 in6.1 mm
05:56 PM 9.0°F-12.8°C 3.3°F-15.9°C 77% Calm Calm 2.0 mph3.2 kmh 30.56 in1034.9 mb 0.00 in0.0 mm 0.00 in0.0 mm 0.24 in6.1 mm
05:58 PM 8.9°F-12.8°C 3.2°F-16.0°C 77% 1.0 mph W1.6 kmh W 3.0 mph4.8 kmh 30.56 in1034.9 mb 0.00 in0.0 mm 0.00 in0.0 mm 0.24 in6.1 mm
06:00 PM 8.9°F-12.8°C 3.2°F-16.0°C 77% 1.0 mph W1.6 kmh W 3.0 mph4.8 kmh 30.56 in1034.9 mb 0.00 in0.0 mm 0.00 in0.0 mm 0.24 in6.1 mm
06:02 PM 8.9°F-12.8°C 3.2°F-16.0°C 77% 1.0 mph W1.6 kmh W 3.0 mph4.8 kmh 30.56 in1034.9 mb 0.00 in0.0 mm 0.00 in0.0 mm 0.24 in6.1 mm
06:04 PM 8.9°F-12.8°C 3.2°F-16.0°C 77% 2.0 mph W3.2 kmh W 3.0 mph4.8 kmh 30.55 in1034.5 mb 0.00 in0.0 mm 0.00 in0.0 mm 0.24 in6.1 mm
06:06 PM 9.0°F-12.8°C 3.3°F-15.9°C 77% 2.0 mph W3.2 kmh W 3.0 mph4.8 kmh 30.55 in1034.5 mb 0.00 in0.0 mm 0.00 in0.0 mm 0.24 in6.1 mm
06:08 PM 9.1°F-12.7°C 3.6°F-15.8°C 78% 2.0 mph W3.2 kmh W 3.0 mph4.8 kmh 30.55 in1034.5 mb 0.00 in0.0 mm 0.00 in0.0 mm 0.24 in6.1 mm
06:10 PM 9.2°F-12.7°C 3.7°F-15.7°C 78% 2.0 mph W3.2 kmh W 4.0 mph6.4 kmh 30.55 in1034.5 mb 0.00 in0.0 mm 0.00 in0.0 mm 0.24 in6.1 mm
06:12 PM 9.4°F-12.6°C 3.6°F-15.8°C 77% 2.0 mph W3.2 kmh W 4.0 mph6.4 kmh 30.55 in1034.5 mb 0.00 in0.0 mm 0.00 in0.0 mm 0.24 in6.1 mm
06:14 PM 9.5°F-12.5°C 3.7°F-15.7°C 77% 2.0 mph W3.2 kmh W 4.0 mph6.4 kmh 30.55 in1034.5 mb 0.00 in0.0 mm 0.00 in0.0 mm 0.24 in6.1 mm
06:16 PM 9.6°F-12.4°C 3.8°F-15.7°C 77% 2.0 mph W3.2 kmh W 4.0 mph6.4 kmh 30.55 in1034.5 mb 0.00 in0.0 mm 0.00 in0.0 mm 0.24 in6.1 mm
06:18 PM 9.6°F-12.4°C 3.8°F-15.7°C 77% 2.0 mph W3.2 kmh W 4.0 mph6.4 kmh 30.55 in1034.5 mb 0.00 in0.0 mm 0.00 in0.0 mm 0.24 in6.1 mm
06:20 PM 9.7°F-12.4°C 3.9°F-15.6°C 77% 1.0 mph W1.6 kmh W 4.0 mph6.4 kmh 30.55 in1034.5 mb 0.00 in0.0 mm 0.00 in0.0 mm 0.24 in6.1 mm
06:22 PM 9.6°F-12.4°C 3.6°F-15.8°C 76% 1.0 mph W1.6 kmh W 2.0 mph3.2 kmh 30.56 in1034.9 mb 0.00 in0.0 mm 0.00 in0.0 mm 0.24 in6.1 mm
06:24 PM 9.6°F-12.4°C 3.6°F-15.8°C 76% 1.0 mph W1.6 kmh W 3.0 mph4.8 kmh 30.56 in1034.9 mb 0.00 in0.0 mm 0.00 in0.0 mm 0.24 in6.1 mm
06:26 PM 9.6°F-12.4°C 3.6°F-15.8°C 76% 1.0 mph W1.6 kmh W 3.0 mph4.8 kmh 30.56 in1034.9 mb 0.00 in0.0 mm 0.00 in0.0 mm 0.24 in6.1 mm
06:28 PM 9.5°F-12.5°C 3.5°F-15.8°C 76% 1.0 mph W1.6 kmh W 3.0 mph4.8 kmh 30.56 in1034.9 mb 0.00 in0.0 mm 0.00 in0.0 mm 0.24 in6.1 mm
06:30 PM 9.4°F-12.6°C 3.4°F-15.9°C 76% 1.0 mph W1.6 kmh W 3.0 mph4.8 kmh 30.56 in1034.9 mb 0.00 in0.0 mm 0.00 in0.0 mm 0.24 in6.1 mm
06:32 PM 9.3°F-12.6°C 3.3°F-15.9°C 76% 1.0 mph W1.6 kmh W 3.0 mph4.8 kmh 30.56 in1034.9 mb 0.00 in0.0 mm 0.00 in0.0 mm 0.24 in6.1 mm
06:34 PM 9.1°F-12.7°C 3.1°F-16.1°C 76% 1.0 mph W1.6 kmh W 3.0 mph4.8 kmh 30.55 in1034.5 mb 0.00 in0.0 mm 0.00 in0.0 mm 0.24 in6.1 mm
06:36 PM 9.0°F-12.8°C 3.0°F-16.1°C 76% 1.0 mph W1.6 kmh W 2.0 mph3.2 kmh 30.55 in1034.5 mb 0.00 in0.0 mm 0.00 in0.0 mm 0.24 in6.1 mm
06:38 PM 8.9°F-12.8°C 2.9°F-16.2°C 76% 1.0 mph W1.6 kmh W 2.0 mph3.2 kmh 30.55 in1034.5 mb 0.00 in0.0 mm 0.00 in0.0 mm 0.24 in6.1 mm
06:40 PM 8.7°F-12.9°C 2.7°F-16.3°C 76% 1.0 mph W1.6 kmh W 3.0 mph4.8 kmh 30.55 in1034.5 mb 0.00 in0.0 mm 0.00 in0.0 mm 0.24 in6.1 mm
06:42 PM 8.5°F-13.1°C 2.5°F-16.4°C 76% 1.0 mph W1.6 kmh W 3.0 mph4.8 kmh 30.55 in1034.5 mb 0.00 in0.0 mm 0.00 in0.0 mm 0.24 in6.1 mm
06:44 PM 8.3°F-13.2°C 2.6°F-16.3°C 77% 2.0 mph W3.2 kmh W 3.0 mph4.8 kmh 30.55 in1034.5 mb 0.00 in0.0 mm 0.00 in0.0 mm 0.24 in6.1 mm
06:46 PM 8.2°F-13.2°C 2.5°F-16.4°C 77% 1.0 mph W1.6 kmh W 3.0 mph4.8 kmh 30.55 in1034.5 mb 0.00 in0.0 mm 0.00 in0.0 mm 0.24 in6.1 mm
06:48 PM 8.1°F-13.3°C 2.7°F-16.3°C 78% 1.0 mph W1.6 kmh W 3.0 mph4.8 kmh 30.55 in1034.5 mb 0.00 in0.0 mm 0.00 in0.0 mm 0.24 in6.1 mm
06:50 PM 8.0°F-13.3°C 2.6°F-16.3°C 78% 1.0 mph W1.6 kmh W 3.0 mph4.8 kmh 30.55 in1034.5 mb 0.00 in0.0 mm 0.00 in0.0 mm 0.24 in6.1 mm
06:52 PM 8.0°F-13.3°C 2.6°F-16.3°C 78% 1.0 mph W1.6 kmh W 3.0 mph4.8 kmh 30.55 in1034.5 mb 0.00 in0.0 mm 0.00 in0.0 mm 0.24 in6.1 mm
06:54 PM 7.9°F-13.4°C 2.5°F-16.4°C 78% 1.0 mph W1.6 kmh W 2.0 mph3.2 kmh 30.55 in1034.5 mb 0.00 in0.0 mm 0.00 in0.0 mm 0.24 in6.1 mm
06:56 PM 7.8°F-13.4°C 2.6°F-16.3°C 79% 1.0 mph W1.6 kmh W 2.0 mph3.2 kmh 30.55 in1034.5 mb 0.00 in0.0 mm 0.00 in0.0 mm 0.24 in6.1 mm
06:58 PM 7.8°F-13.4°C 2.6°F-16.3°C 79% 1.0 mph W1.6 kmh W 2.0 mph3.2 kmh 30.55 in1034.5 mb 0.00 in0.0 mm 0.00 in0.0 mm 0.24 in6.1 mm
07:00 PM 7.8°F-13.4°C 2.6°F-16.3°C 79% 1.0 mph W1.6 kmh W 2.0 mph3.2 kmh 30.55 in1034.5 mb 0.00 in0.0 mm 0.00 in0.0 mm 0.24 in6.1 mm
07:02 PM 7.8°F-13.4°C 2.6°F-16.3°C 79% 1.0 mph W1.6 kmh W 3.0 mph4.8 kmh 30.55 in1034.5 mb 0.00 in0.0 mm 0.00 in0.0 mm 0.24 in6.1 mm
07:04 PM 7.8°F-13.4°C 2.6°F-16.3°C 79% 1.0 mph W1.6 kmh W 3.0 mph4.8 kmh 30.55 in1034.5 mb 0.00 in0.0 mm 0.00 in0.0 mm 0.24 in6.1 mm
07:06 PM 7.8°F-13.4°C 2.6°F-16.3°C 79% 1.0 mph W1.6 kmh W 3.0 mph4.8 kmh 30.54 in1034.2 mb 0.00 in0.0 mm 0.00 in0.0 mm 0.24 in6.1 mm
07:08 PM 7.7°F-13.5°C 2.5°F-16.4°C 79% 1.0 mph W1.6 kmh W 3.0 mph4.8 kmh 30.54 in1034.2 mb 0.00 in0.0 mm 0.00 in0.0 mm 0.24 in6.1 mm
07:10 PM 7.7°F-13.5°C 2.5°F-16.4°C 79% 1.0 mph W1.6 kmh W 3.0 mph4.8 kmh 30.54 in1034.2 mb 0.00 in0.0 mm 0.00 in0.0 mm 0.24 in6.1 mm
07:12 PM 7.7°F-13.5°C 2.5°F-16.4°C 79% 2.0 mph W3.2 kmh W 3.0 mph4.8 kmh 30.54 in1034.2 mb 0.00 in0.0 mm 0.00 in0.0 mm 0.24 in6.1 mm
07:14 PM 7.7°F-13.5°C 2.5°F-16.4°C 79% 2.0 mph W3.2 kmh W 3.0 mph4.8 kmh 30.54 in1034.2 mb 0.00 in0.0 mm 0.00 in0.0 mm 0.24 in6.1 mm
07:16 PM 7.7°F-13.5°C 2.5°F-16.4°C 79% 2.0 mph W3.2 kmh W 3.0 mph4.8 kmh 30.54 in1034.2 mb 0.00 in0.0 mm 0.00 in0.0 mm 0.24 in6.1 mm
07:18 PM 7.7°F-13.5°C 2.5°F-16.4°C 79% 2.0 mph W3.2 kmh W 3.0 mph4.8 kmh 30.54 in1034.2 mb 0.00 in0.0 mm 0.00 in0.0 mm 0.24 in6.1 mm
07:20 PM 7.6°F-13.6°C 2.4°F-16.4°C 79% 2.0 mph W3.2 kmh W 4.0 mph6.4 kmh 30.54 in1034.2 mb 0.00 in0.0 mm 0.00 in0.0 mm 0.24 in6.1 mm
07:22 PM 7.6°F-13.6°C 2.4°F-16.4°C 79% 2.0 mph W3.2 kmh W 4.0 mph6.4 kmh 30.54 in1034.2 mb 0.00 in0.0 mm 0.00 in0.0 mm 0.24 in6.1 mm
07:24 PM 7.6°F-13.6°C 2.4°F-16.4°C 79% 2.0 mph W3.2 kmh W 4.0 mph6.4 kmh 30.54 in1034.2 mb 0.00 in0.0 mm 0.00 in0.0 mm 0.24 in6.1 mm
07:26 PM 7.6°F-13.6°C 2.4°F-16.4°C 79% 2.0 mph W3.2 kmh W 4.0 mph6.4 kmh 30.53 in1033.9 mb 0.00 in0.0 mm 0.00 in0.0 mm 0.24 in6.1 mm
07:28 PM 7.5°F-13.6°C 2.6°F-16.3°C 80% 2.0 mph W3.2 kmh W 4.0 mph6.4 kmh 30.54 in1034.2 mb 0.00 in0.0 mm 0.00 in0.0 mm 0.24 in6.1 mm
07:30 PM 7.5°F-13.6°C 2.3°F-16.5°C 79% 1.0 mph W1.6 kmh W 3.0 mph4.8 kmh 30.53 in1033.9 mb 0.00 in0.0 mm 0.00 in0.0 mm 0.24 in6.1 mm
07:32 PM 7.5°F-13.6°C 2.6°F-16.3°C 80% 1.0 mph W1.6 kmh W 3.0 mph4.8 kmh 30.54 in1034.2 mb 0.00 in0.0 mm 0.00 in0.0 mm 0.24 in6.1 mm
07:34 PM 7.4°F-13.7°C 2.5°F-16.4°C 80% 1.0 mph W1.6 kmh W 3.0 mph4.8 kmh 30.54 in1034.2 mb 0.00 in0.0 mm 0.00 in0.0 mm 0.24 in6.1 mm
07:36 PM 7.4°F-13.7°C 2.5°F-16.4°C 80% 1.0 mph W1.6 kmh W 3.0 mph4.8 kmh 30.53 in1033.9 mb 0.00 in0.0 mm 0.00 in0.0 mm 0.24 in6.1 mm
07:38 PM 7.4°F-13.7°C 2.5°F-16.4°C 80% 2.0 mph W3.2 kmh W 3.0 mph4.8 kmh 30.53 in1033.9 mb 0.00 in0.0 mm 0.00 in0.0 mm 0.24 in6.1 mm
07:40 PM 7.4°F-13.7°C 2.5°F-16.4°C 80% 2.0 mph W3.2 kmh W 3.0 mph4.8 kmh 30.53 in1033.9 mb 0.00 in0.0 mm 0.00 in0.0 mm 0.24 in6.1 mm
07:42 PM 7.4°F-13.7°C 2.8°F-16.2°C 81% 2.0 mph W3.2 kmh W 3.0 mph4.8 kmh 30.54 in1034.2 mb 0.00 in0.0 mm 0.00 in0.0 mm 0.24 in6.1 mm
07:44 PM 7.5°F-13.6°C 2.9°F-16.2°C 81% 2.0 mph W3.2 kmh W 3.0 mph4.8 kmh 30.54 in1034.2 mb 0.00 in0.0 mm 0.00 in0.0 mm 0.24 in6.1 mm
07:46 PM 7.5°F-13.6°C 2.9°F-16.2°C 81% 2.0 mph W3.2 kmh W 3.0 mph4.8 kmh 30.54 in1034.2 mb 0.00 in0.0 mm 0.00 in0.0 mm 0.24 in6.1 mm
07:48 PM 7.6°F-13.6°C 3.0°F-16.1°C 81% 2.0 mph W3.2 kmh W 3.0 mph4.8 kmh 30.53 in1033.9 mb 0.00 in0.0 mm 0.00 in0.0 mm 0.24 in6.1 mm
07:50 PM 7.6°F-13.6°C 3.0°F-16.1°C 81% 2.0 mph W3.2 kmh W 3.0 mph4.8 kmh 30.53 in1033.9 mb 0.00 in0.0 mm 0.00 in0.0 mm 0.24 in6.1 mm
07:52 PM 7.6°F-13.6°C 3.0°F-16.1°C 81% 2.0 mph W3.2 kmh W 3.0 mph4.8 kmh 30.53 in1033.9 mb 0.00 in0.0 mm 0.00 in0.0 mm 0.24 in6.1 mm
07:54 PM 7.7°F-13.5°C 3.1°F-16.1°C 81% 2.0 mph W3.2 kmh W 3.0 mph4.8 kmh 30.53 in1033.9 mb 0.00 in0.0 mm 0.00 in0.0 mm 0.24 in6.1 mm
07:56 PM 7.7°F-13.5°C 3.1°F-16.1°C 81% 2.0 mph W3.2 kmh W 3.0 mph4.8 kmh 30.53 in1033.9 mb 0.00 in0.0 mm 0.00 in0.0 mm 0.24 in6.1 mm
07:58 PM 7.8°F-13.4°C 3.2°F-16.0°C 81% 1.0 mph W1.6 kmh W 3.0 mph4.8 kmh 30.53 in1033.9 mb 0.00 in0.0 mm 0.00 in0.0 mm 0.24 in6.1 mm
08:00 PM 7.8°F-13.4°C 3.2°F-16.0°C 81% 1.0 mph W1.6 kmh W 3.0 mph4.8 kmh 30.53 in1033.9 mb 0.00 in0.0 mm 0.00 in0.0 mm 0.24 in6.1 mm
08:02 PM 7.7°F-13.5°C 3.1°F-16.1°C 81% 1.0 mph W1.6 kmh W 3.0 mph4.8 kmh 30.53 in1033.9 mb 0.00 in0.0 mm 0.00 in0.0 mm 0.24 in6.1 mm
08:04 PM 7.7°F-13.5°C 3.1°F-16.1°C 81% 1.0 mph W1.6 kmh W 3.0 mph4.8 kmh 30.53 in1033.9 mb 0.00 in0.0 mm 0.00 in0.0 mm 0.24 in6.1 mm
08:06 PM 7.7°F-13.5°C 3.1°F-16.1°C 81% 1.0 mph W1.6 kmh W 3.0 mph4.8 kmh 30.53 in1033.9 mb 0.00 in0.0 mm 0.00 in0.0 mm 0.24 in6.1 mm
08:08 PM 7.6°F-13.6°C 3.0°F-16.1°C 81% 2.0 mph W3.2 kmh W 3.0 mph4.8 kmh 30.53 in1033.9 mb 0.00 in0.0 mm 0.00 in0.0 mm 0.24 in6.1 mm
08:10 PM 7.6°F-13.6°C 3.0°F-16.1°C 81% 2.0 mph W3.2 kmh W 3.0 mph4.8 kmh 30.53 in1033.9 mb 0.00 in0.0 mm 0.00 in0.0 mm 0.24 in6.1 mm
08:12 PM 7.6°F-13.6°C 3.0°F-16.1°C 81% 2.0 mph W3.2 kmh W 4.0 mph6.4 kmh 30.53 in1033.9 mb 0.00 in0.0 mm 0.00 in0.0 mm 0.24 in6.1 mm
08:14 PM 7.6°F-13.6°C 3.0°F-16.1°C 81% 2.0 mph W3.2 kmh W 4.0 mph6.4 kmh 30.53 in1033.9 mb 0.00 in0.0 mm 0.00 in0.0 mm 0.24 in6.1 mm
08:16 PM 7.5°F-13.6°C 2.9°F-16.2°C 81% 2.0 mph W3.2 kmh W 4.0 mph6.4 kmh 30.52 in1033.5 mb 0.00 in0.0 mm 0.00 in0.0 mm 0.24 in6.1 mm
08:18 PM 7.5°F-13.6°C 2.9°F-16.2°C 81% 2.0 mph W3.2 kmh W 4.0 mph6.4 kmh 30.53 in1033.9 mb 0.00 in0.0 mm 0.00 in0.0 mm 0.24 in6.1 mm
08:20 PM 7.5°F-13.6°C 2.9°F-16.2°C 81% 2.0 mph W3.2 kmh W 4.0 mph6.4 kmh 30.52 in1033.5 mb 0.00 in0.0 mm 0.00 in0.0 mm 0.24 in6.1 mm
08:22 PM 7.5°F-13.6°C 2.9°F-16.2°C 81% 2.0 mph W3.2 kmh W 4.0 mph6.4 kmh 30.52 in1033.5 mb 0.00 in0.0 mm 0.00 in0.0 mm 0.24 in6.1 mm
08:24 PM 7.4°F-13.7°C 2.8°F-16.2°C 81% 2.0 mph W3.2 kmh W 3.0 mph4.8 kmh 30.52 in1033.5 mb 0.00 in0.0 mm 0.00 in0.0 mm 0.24 in6.1 mm
08:26 PM 7.4°F-13.7°C 2.8°F-16.2°C 81% 2.0 mph W3.2 kmh W 3.0 mph4.8 kmh 30.52 in1033.5 mb 0.00 in0.0 mm 0.00 in0.0 mm 0.24 in6.1 mm
08:28 PM 7.4°F-13.7°C 2.8°F-16.2°C 81% 2.0 mph W3.2 kmh W 3.0 mph4.8 kmh 30.52 in1033.5 mb 0.00 in0.0 mm 0.00 in0.0 mm 0.24 in6.1 mm
08:30 PM 7.4°F-13.7°C 2.8°F-16.2°C 81% 2.0 mph W3.2 kmh W 3.0 mph4.8 kmh 30.53 in1033.9 mb 0.00 in0.0 mm 0.00 in0.0 mm 0.24 in6.1 mm
08:32 PM 7.4°F-13.7°C 2.8°F-16.2°C 81% 2.0 mph W3.2 kmh W 3.0 mph4.8 kmh 30.52 in1033.5 mb 0.00 in0.0 mm 0.00 in0.0 mm 0.24 in6.1 mm
08:34 PM 7.3°F-13.7°C 2.7°F-16.3°C 81% 2.0 mph W3.2 kmh W 3.0 mph4.8 kmh 30.52 in1033.5 mb 0.00 in0.0 mm 0.00 in0.0 mm 0.24 in6.1 mm
08:36 PM 7.3°F-13.7°C 2.7°F-16.3°C 81% 2.0 mph W3.2 kmh W 3.0 mph4.8 kmh 30.52 in1033.5 mb 0.00 in0.0 mm 0.00 in0.0 mm 0.24 in6.1 mm
08:38 PM 7.2°F-13.8°C 2.6°F-16.3°C 81% 1.0 mph W1.6 kmh W 3.0 mph4.8 kmh 30.52 in1033.5 mb 0.00 in0.0 mm 0.00 in0.0 mm 0.24 in6.1 mm
08:40 PM 7.2°F-13.8°C 2.6°F-16.3°C 81% 1.0 mph W1.6 kmh W 3.0 mph4.8 kmh 30.53 in1033.9 mb 0.00 in0.0 mm 0.00 in0.0 mm 0.24 in6.1 mm
08:42 PM 7.2°F-13.8°C 2.6°F-16.3°C 81% 1.0 mph W1.6 kmh W 3.0 mph4.8 kmh 30.53 in1033.9 mb 0.00 in0.0 mm 0.00 in0.0 mm 0.24 in6.1 mm
08:44 PM 7.1°F-13.8°C 2.5°F-16.4°C 81% 1.0 mph W1.6 kmh W 2.0 mph3.2 kmh 30.53 in1033.9 mb 0.00 in0.0 mm 0.00 in0.0 mm 0.24 in6.1 mm
08:46 PM 7.1°F-13.8°C 2.5°F-16.4°C 81% 1.0 mph W1.6 kmh W 2.0 mph3.2 kmh 30.53 in1033.9 mb 0.00 in0.0 mm 0.00 in0.0 mm 0.24 in6.1 mm
08:48 PM 7.1°F-13.8°C 2.5°F-16.4°C 81% 1.0 mph W1.6 kmh W 2.0 mph3.2 kmh 30.53 in1033.9 mb 0.00 in0.0 mm 0.00 in0.0 mm 0.24 in6.1 mm
08:50 PM 7.0°F-13.9°C 2.4°F-16.4°C 81% 2.0 mph W3.2 kmh W 3.0 mph4.8 kmh 30.53 in1033.9 mb 0.00 in0.0 mm 0.00 in0.0 mm 0.24 in6.1 mm
08:52 PM 7.0°F-13.9°C 2.7°F-16.3°C 82% 2.0 mph W3.2 kmh W 3.0 mph4.8 kmh 30.53 in1033.9 mb 0.00 in0.0 mm 0.00 in0.0 mm 0.24 in6.1 mm
08:54 PM 7.0°F-13.9°C 2.7°F-16.3°C 82% 2.0 mph W3.2 kmh W 3.0 mph4.8 kmh 30.53 in1033.9 mb 0.00 in0.0 mm 0.00 in0.0 mm 0.24 in6.1 mm
08:56 PM 7.1°F-13.8°C 2.5°F-16.4°C 81% 2.0 mph W3.2 kmh W 3.0 mph4.8 kmh 30.53 in1033.9 mb 0.00 in0.0 mm 0.00 in0.0 mm 0.24 in6.1 mm
08:58 PM 7.0°F-13.9°C 2.4°F-16.4°C 81% 2.0 mph W3.2 kmh W 3.0 mph4.8 kmh 30.52 in1033.5 mb 0.00 in0.0 mm 0.00 in0.0 mm 0.24 in6.1 mm
09:00 PM 7.1°F-13.8°C 2.5°F-16.4°C 81% 2.0 mph W3.2 kmh W 3.0 mph4.8 kmh 30.52 in1033.5 mb 0.00 in0.0 mm 0.00 in0.0 mm 0.24 in6.1 mm
09:02 PM 7.1°F-13.8°C 2.8°F-16.2°C 82% 2.0 mph W3.2 kmh W 3.0 mph4.8 kmh 30.52 in1033.5 mb 0.00 in0.0 mm 0.00 in0.0 mm 0.24 in6.1 mm
09:04 PM 7.2°F-13.8°C 2.9°F-16.2°C 82% 2.0 mph WSW3.2 kmh WSW 4.0 mph6.4 kmh 30.52 in1033.5 mb 0.00 in0.0 mm 0.00 in0.0 mm 0.24 in6.1 mm
09:06 PM 7.3°F-13.7°C 3.0°F-16.1°C 82% 2.0 mph SW3.2 kmh SW 4.0 mph6.4 kmh 30.52 in1033.5 mb 0.00 in0.0 mm 0.00 in0.0 mm 0.24 in6.1 mm
09:08 PM 7.4°F-13.7°C 3.1°F-16.1°C 82% 2.0 mph SW3.2 kmh SW 4.0 mph6.4 kmh 30.52 in1033.5 mb 0.00 in0.0 mm 0.00 in0.0 mm 0.24 in6.1 mm
09:10 PM 7.4°F-13.7°C 3.1°F-16.1°C 82% 2.0 mph S3.2 kmh S 4.0 mph6.4 kmh 30.52 in1033.5 mb 0.00 in0.0 mm 0.00 in0.0 mm 0.24 in6.1 mm
09:12 PM 7.4°F-13.7°C 2.8°F-16.2°C 81% 2.0 mph S3.2 kmh S 4.0 mph6.4 kmh 30.52 in1033.5 mb 0.00 in0.0 mm 0.00 in0.0 mm 0.24 in6.1 mm
09:14 PM 7.4°F-13.7°C 2.8°F-16.2°C 81% 2.0 mph S3.2 kmh S 4.0 mph6.4 kmh 30.52 in1033.5 mb 0.00 in0.0 mm 0.00 in0.0 mm 0.24 in6.1 mm
09:16 PM 7.5°F-13.6°C 2.9°F-16.2°C 81% 2.0 mph S3.2 kmh S 6.0 mph9.7 kmh 30.52 in1033.5 mb 0.00 in0.0 mm 0.00 in0.0 mm 0.24 in6.1 mm
09:18 PM 7.6°F-13.6°C 3.0°F-16.1°C 81% 3.0 mph S4.8 kmh S 6.0 mph9.7 kmh 30.52 in1033.5 mb 0.00 in0.0 mm 0.00 in0.0 mm 0.24 in6.1 mm
09:20 PM 7.6°F-13.6°C 3.0°F-16.1°C 81% 3.0 mph S4.8 kmh S 6.0 mph9.7 kmh 30.52 in1033.5 mb 0.00 in0.0 mm 0.00 in0.0 mm 0.24 in6.1 mm
09:22 PM 7.8°F-13.4°C 3.2°F-16.0°C 81% 3.0 mph S4.8 kmh S 7.0 mph11.3 kmh 30.52 in1033.5 mb 0.00 in0.0 mm 0.00 in0.0 mm 0.24 in6.1 mm
09:24 PM 8.0°F-13.3°C 3.4°F-15.9°C 81% 3.0 mph S4.8 kmh S 7.0 mph11.3 kmh 30.52 in1033.5 mb 0.00 in0.0 mm 0.00 in0.0 mm 0.24 in6.1 mm
09:26 PM 8.2°F-13.2°C 3.6°F-15.8°C 81% 3.0 mph S4.8 kmh S 8.0 mph12.9 kmh 30.51 in1033.2 mb 0.00 in0.0 mm 0.00 in0.0 mm 0.24 in6.1 mm
09:28 PM 8.4°F-13.1°C 3.5°F-15.8°C 80% 3.0 mph S4.8 kmh S 8.0 mph12.9 kmh 30.52 in1033.5 mb 0.00 in0.0 mm 0.00 in0.0 mm 0.24 in6.1 mm
09:30 PM 8.4°F-13.1°C 3.5°F-15.8°C 80% 3.0 mph S4.8 kmh S 8.0 mph12.9 kmh 30.52 in1033.5 mb 0.00 in0.0 mm 0.00 in0.0 mm 0.24 in6.1 mm
09:32 PM 8.3°F-13.2°C 3.1°F-16.1°C 79% 3.0 mph S4.8 kmh S 8.0 mph12.9 kmh 30.51 in1033.2 mb 0.00 in0.0 mm 0.00 in0.0 mm 0.24 in6.1 mm
09:34 PM 8.2°F-13.2°C 3.0°F-16.1°C 79% 3.0 mph S4.8 kmh S 8.0 mph12.9 kmh 30.51 in1033.2 mb 0.00 in0.0 mm 0.00 in0.0 mm 0.24 in6.1 mm
09:36 PM 8.2°F-13.2°C 3.0°F-16.1°C 79% 3.0 mph S4.8 kmh S 6.0 mph9.7 kmh 30.52 in1033.5 mb 0.00 in0.0 mm 0.00 in0.0 mm 0.24 in6.1 mm
09:38 PM 8.2°F-13.2°C 3.3°F-15.9°C 80% 3.0 mph S4.8 kmh S 5.0 mph8.0 kmh 30.51 in1033.2 mb 0.00 in0.0 mm 0.00 in0.0 mm 0.24 in6.1 mm
09:40 PM 8.2°F-13.2°C 3.3°F-15.9°C 80% 2.0 mph S3.2 kmh S 5.0 mph8.0 kmh 30.51 in1033.2 mb 0.00 in0.0 mm 0.00 in0.0 mm 0.24 in6.1 mm
09:42 PM 8.3°F-13.2°C 3.4°F-15.9°C 80% 2.0 mph S3.2 kmh S 5.0 mph8.0 kmh 30.51 in1033.2 mb 0.00 in0.0 mm 0.00 in0.0 mm 0.24 in6.1 mm
09:44 PM 8.5°F-13.1°C 3.9°F-15.6°C 81% 2.0 mph S3.2 kmh S 5.0 mph8.0 kmh 30.51 in1033.2 mb 0.00 in0.0 mm 0.00 in0.0 mm 0.24 in6.1 mm
09:46 PM 8.6°F-13.0°C 4.0°F-15.6°C 81% 2.0 mph S3.2 kmh S 4.0 mph6.4 kmh 30.51 in1033.2 mb 0.00 in0.0 mm 0.00 in0.0 mm 0.24 in6.1 mm
09:48 PM 8.7°F-12.9°C 4.1°F-15.5°C 81% 2.0 mph S3.2 kmh S 4.0 mph6.4 kmh 30.51 in1033.2 mb 0.00 in0.0 mm 0.00 in0.0 mm 0.24 in6.1 mm
09:50 PM 8.8°F-12.9°C 4.2°F-15.4°C 81% 2.0 mph S3.2 kmh S 4.0 mph6.4 kmh 30.51 in1033.2 mb 0.00 in0.0 mm 0.00 in0.0 mm 0.24 in6.1 mm
09:52 PM 8.8°F-12.9°C 4.2°F-15.4°C 81% 1.0 mph S1.6 kmh S 4.0 mph6.4 kmh 30.51 in1033.2 mb 0.00 in0.0 mm 0.00 in0.0 mm 0.24 in6.1 mm
09:54 PM 8.8°F-12.9°C 3.9°F-15.6°C 80% 1.0 mph S1.6 kmh S 4.0 mph6.4 kmh 30.51 in1033.2 mb 0.00 in0.0 mm 0.00 in0.0 mm 0.24 in6.1 mm
09:56 PM 8.8°F-12.9°C 3.9°F-15.6°C 80% 1.0 mph S1.6 kmh S 4.0 mph6.4 kmh 30.51 in1033.2 mb 0.00 in0.0 mm 0.00 in0.0 mm 0.24 in6.1 mm
09:58 PM 8.8°F-12.9°C 3.9°F-15.6°C 80% 2.0 mph S3.2 kmh S 5.0 mph8.0 kmh 30.51 in1033.2 mb 0.00 in0.0 mm 0.00 in0.0 mm 0.24 in6.1 mm
10:00 PM 8.8°F-12.9°C 3.9°F-15.6°C 80% 2.0 mph S3.2 kmh S 5.0 mph8.0 kmh 30.51 in1033.2 mb 0.00 in0.0 mm 0.00 in0.0 mm 0.24 in6.1 mm
10:02 PM 8.9°F-12.8°C 4.0°F-15.6°C 80% 2.0 mph S3.2 kmh S 5.0 mph8.0 kmh 30.51 in1033.2 mb 0.00 in0.0 mm 0.00 in0.0 mm 0.24 in6.1 mm
10:04 PM 8.9°F-12.8°C 4.0°F-15.6°C 80% 2.0 mph S3.2 kmh S 6.0 mph9.7 kmh 30.51 in1033.2 mb 0.00 in0.0 mm 0.00 in0.0 mm 0.24 in6.1 mm
10:06 PM 9.0°F-12.8°C 4.1°F-15.5°C 80% 2.0 mph S3.2 kmh S 6.0 mph9.7 kmh 30.51 in1033.2 mb 0.00 in0.0 mm 0.00 in0.0 mm 0.24 in6.1 mm
10:08 PM 9.0°F-12.8°C 4.1°F-15.5°C 80% 2.0 mph S3.2 kmh S 6.0 mph9.7 kmh 30.51 in1033.2 mb 0.00 in0.0 mm 0.00 in0.0 mm 0.24 in6.1 mm
10:10 PM 9.1°F-12.7°C 4.2°F-15.4°C 80% 2.0 mph S3.2 kmh S 6.0 mph9.7 kmh 30.51 in1033.2 mb 0.00 in0.0 mm 0.00 in0.0 mm 0.24 in6.1 mm
10:12 PM 9.0°F-12.8°C 4.1°F-15.5°C 80% 2.0 mph S3.2 kmh S 6.0 mph9.7 kmh 30.51 in1033.2 mb 0.00 in0.0 mm 0.00 in0.0 mm 0.24 in6.1 mm
10:14 PM 9.0°F-12.8°C 4.1°F-15.5°C 80% 2.0 mph S3.2 kmh S 4.0 mph6.4 kmh 30.51 in1033.2 mb 0.00 in0.0 mm 0.00 in0.0 mm 0.24 in6.1 mm
10:16 PM 8.9°F-12.8°C 4.0°F-15.6°C 80% 2.0 mph S3.2 kmh S 4.0 mph6.4 kmh 30.51 in1033.2 mb 0.00 in0.0 mm 0.00 in0.0 mm 0.24 in6.1 mm
10:18 PM 8.8°F-12.9°C 3.6°F-15.8°C 79% 2.0 mph S3.2 kmh S 4.0 mph6.4 kmh 30.51 in1033.2 mb 0.00 in0.0 mm 0.00 in0.0 mm 0.24 in6.1 mm
10:20 PM 8.7°F-12.9°C 3.5°F-15.8°C 79% 3.0 mph S4.8 kmh S 5.0 mph8.0 kmh 30.51 in1033.2 mb 0.00 in0.0 mm 0.00 in0.0 mm 0.24 in6.1 mm
10:22 PM 8.6°F-13.0°C 3.4°F-15.9°C 79% 3.0 mph S4.8 kmh S 5.0 mph8.0 kmh 30.51 in1033.2 mb 0.00 in0.0 mm 0.00 in0.0 mm 0.24 in6.1 mm
10:24 PM 8.6°F-13.0°C 3.4°F-15.9°C 79% 3.0 mph S4.8 kmh S 5.0 mph8.0 kmh 30.51 in1033.2 mb 0.00 in0.0 mm 0.00 in0.0 mm 0.24 in6.1 mm
10:26 PM 8.5°F-13.1°C 3.3°F-15.9°C 79% 3.0 mph S4.8 kmh S 5.0 mph8.0 kmh 30.51 in1033.2 mb 0.00 in0.0 mm 0.00 in0.0 mm 0.24 in6.1 mm
10:28 PM 8.5°F-13.1°C 3.3°F-15.9°C 79% 3.0 mph S4.8 kmh S 5.0 mph8.0 kmh 30.51 in1033.2 mb 0.00 in0.0 mm 0.00 in0.0 mm 0.24 in6.1 mm
10:30 PM 8.5°F-13.1°C 3.3°F-15.9°C 79% 3.0 mph S4.8 kmh S 5.0 mph8.0 kmh 30.51 in1033.2 mb 0.00 in0.0 mm 0.00 in0.0 mm 0.24 in6.1 mm
10:32 PM 8.6°F-13.0°C 3.7°F-15.7°C 80% 3.0 mph S4.8 kmh S 5.0 mph8.0 kmh 30.50 in1032.8 mb 0.00 in0.0 mm 0.00 in0.0 mm 0.24 in6.1 mm
10:34 PM 8.7°F-12.9°C 3.8°F-15.7°C 80% 3.0 mph S4.8 kmh S 5.0 mph8.0 kmh 30.50 in1032.8 mb 0.00 in0.0 mm 0.00 in0.0 mm 0.24 in6.1 mm
10:36 PM 8.8°F-12.9°C 3.9°F-15.6°C 80% 3.0 mph S4.8 kmh S 5.0 mph8.0 kmh 30.50 in1032.8 mb 0.00 in0.0 mm 0.00 in0.0 mm 0.24 in6.1 mm
10:38 PM 8.8°F-12.9°C 3.9°F-15.6°C 80% 2.0 mph S3.2 kmh S 5.0 mph8.0 kmh 30.50 in1032.8 mb 0.00 in0.0 mm 0.00 in0.0 mm 0.24 in6.1 mm
10:40 PM 9.0°F-12.8°C 4.1°F-15.5°C 80% 3.0 mph S4.8 kmh S 5.0 mph8.0 kmh 30.50 in1032.8 mb 0.00 in0.0 mm 0.00 in0.0 mm 0.24 in6.1 mm
10:42 PM 9.0°F-12.8°C 4.1°F-15.5°C 80% 3.0 mph S4.8 kmh S 5.0 mph8.0 kmh 30.50 in1032.8 mb 0.00 in0.0 mm 0.00 in0.0 mm 0.24 in6.1 mm
10:44 PM 9.0°F-12.8°C 3.8°F-15.7°C 79% 3.0 mph S4.8 kmh S 5.0 mph8.0 kmh 30.50 in1032.8 mb 0.00 in0.0 mm 0.00 in0.0 mm 0.24 in6.1 mm
10:46 PM 9.0°F-12.8°C 3.8°F-15.7°C 79% 2.0 mph S3.2 kmh S 5.0 mph8.0 kmh 30.50 in1032.8 mb 0.00 in0.0 mm 0.00 in0.0 mm 0.24 in6.1 mm
10:48 PM 9.0°F-12.8°C 3.8°F-15.7°C 79% 2.0 mph S3.2 kmh S 5.0 mph8.0 kmh 30.50 in1032.8 mb 0.00 in0.0 mm 0.00 in0.0 mm 0.24 in6.1 mm
10:50 PM 9.0°F-12.8°C 3.8°F-15.7°C 79% 2.0 mph S3.2 kmh S 4.0 mph6.4 kmh 30.50 in1032.8 mb 0.00 in0.0 mm 0.00 in0.0 mm 0.24 in6.1 mm
10:52 PM 8.9°F-12.8°C 3.7°F-15.7°C 79% 2.0 mph S3.2 kmh S 4.0 mph6.4 kmh 30.50 in1032.8 mb 0.00 in0.0 mm 0.00 in0.0 mm 0.24 in6.1 mm
10:54 PM 8.9°F-12.8°C 3.7°F-15.7°C 79% 2.0 mph S3.2 kmh S 4.0 mph6.4 kmh 30.50 in1032.8 mb 0.00 in0.0 mm 0.00 in0.0 mm 0.24 in6.1 mm
10:56 PM 8.9°F-12.8°C 3.7°F-15.7°C 79% 2.0 mph S3.2 kmh S 4.0 mph6.4 kmh 30.50 in1032.8 mb 0.00 in0.0 mm 0.00 in0.0 mm 0.24 in6.1 mm
10:58 PM 8.9°F-12.8°C 3.7°F-15.7°C 79% 2.0 mph S3.2 kmh S 5.0 mph8.0 kmh 30.50 in1032.8 mb 0.00 in0.0 mm 0.00 in0.0 mm 0.24 in6.1 mm
11:00 PM 8.9°F-12.8°C 3.7°F-15.7°C 79% 2.0 mph S3.2 kmh S 5.0 mph8.0 kmh 30.50 in1032.8 mb 0.00 in0.0 mm 0.00 in0.0 mm 0.24 in6.1 mm
11:02 PM 8.9°F-12.8°C 3.7°F-15.7°C 79% 2.0 mph S3.2 kmh S 5.0 mph8.0 kmh 30.50 in1032.8 mb 0.00 in0.0 mm 0.00 in0.0 mm 0.24 in6.1 mm
11:04 PM 8.9°F-12.8°C 3.7°F-15.7°C 79% 2.0 mph S3.2 kmh S 5.0 mph8.0 kmh 30.50 in1032.8 mb 0.00 in0.0 mm 0.00 in0.0 mm 0.24 in6.1 mm
11:06 PM 8.9°F-12.8°C 3.7°F-15.7°C 79% 2.0 mph S3.2 kmh S 5.0 mph8.0 kmh 30.50 in1032.8 mb 0.00 in0.0 mm 0.00 in0.0 mm 0.24 in6.1 mm
11:08 PM 8.9°F-12.8°C 3.7°F-15.7°C 79% 2.0 mph S3.2 kmh S 5.0 mph8.0 kmh 30.49 in1032.5 mb 0.00 in0.0 mm 0.00 in0.0 mm 0.24 in6.1 mm
11:10 PM 8.9°F-12.8°C 3.7°F-15.7°C 79% 2.0 mph S3.2 kmh S 5.0 mph8.0 kmh 30.49 in1032.5 mb 0.00 in0.0 mm 0.00 in0.0 mm 0.24 in6.1 mm
11:12 PM 8.8°F-12.9°C 3.6°F-15.8°C 79% 2.0 mph S3.2 kmh S 5.0 mph8.0 kmh 30.49 in1032.5 mb 0.00 in0.0 mm 0.00 in0.0 mm 0.24 in6.1 mm
11:14 PM 8.8°F-12.9°C 3.6°F-15.8°C 79% 2.0 mph S3.2 kmh S 5.0 mph8.0 kmh 30.50 in1032.8 mb 0.00 in0.0 mm 0.00 in0.0 mm 0.24 in6.1 mm
11:16 PM 8.7°F-12.9°C 3.5°F-15.8°C 79% 2.0 mph S3.2 kmh S 5.0 mph8.0 kmh 30.50 in1032.8 mb 0.00 in0.0 mm 0.00 in0.0 mm 0.24 in6.1 mm
11:18 PM 8.7°F-12.9°C 3.5°F-15.8°C 79% 2.0 mph S3.2 kmh S 5.0 mph8.0 kmh 30.50 in1032.8 mb 0.00 in0.0 mm 0.00 in0.0 mm 0.24 in6.1 mm
11:20 PM 8.7°F-12.9°C 3.5°F-15.8°C 79% 2.0 mph S3.2 kmh S 5.0 mph8.0 kmh 30.50 in1032.8 mb 0.00 in0.0 mm 0.00 in0.0 mm 0.24 in6.1 mm
11:22 PM 8.7°F-12.9°C 3.5°F-15.8°C 79% 1.0 mph S1.6 kmh S 4.0 mph6.4 kmh 30.50 in1032.8 mb 0.00 in0.0 mm 0.00 in0.0 mm 0.24 in6.1 mm
11:24 PM 8.6°F-13.0°C 3.4°F-15.9°C 79% 1.0 mph S1.6 kmh S 4.0 mph6.4 kmh 30.50 in1032.8 mb 0.00 in0.0 mm 0.00 in0.0 mm 0.24 in6.1 mm
11:26 PM 8.6°F-13.0°C 3.4°F-15.9°C 79% 2.0 mph S3.2 kmh S 5.0 mph8.0 kmh 30.50 in1032.8 mb 0.00 in0.0 mm 0.00 in0.0 mm 0.24 in6.1 mm
11:28 PM 8.6°F-13.0°C 3.4°F-15.9°C 79% 2.0 mph S3.2 kmh S 5.0 mph8.0 kmh 30.50 in1032.8 mb 0.00 in0.0 mm 0.00 in0.0 mm 0.24 in6.1 mm
11:30 PM 8.6°F-13.0°C 3.7°F-15.7°C 80% 2.0 mph S3.2 kmh S 5.0 mph8.0 kmh 30.50 in1032.8 mb 0.00 in0.0 mm 0.00 in0.0 mm 0.24 in6.1 mm
11:32 PM 8.6°F-13.0°C 3.7°F-15.7°C 80% 2.0 mph S3.2 kmh S 5.0 mph8.0 kmh 30.50 in1032.8 mb 0.00 in0.0 mm 0.00 in0.0 mm 0.24 in6.1 mm
11:34 PM 8.5°F-13.1°C 3.6°F-15.8°C 80% 2.0 mph S3.2 kmh S 5.0 mph8.0 kmh 30.50 in1032.8 mb 0.00 in0.0 mm 0.00 in0.0 mm 0.24 in6.1 mm
11:36 PM 8.5°F-13.1°C 3.3°F-15.9°C 79% 2.0 mph S3.2 kmh S 5.0 mph8.0 kmh 30.50 in1032.8 mb 0.00 in0.0 mm 0.00 in0.0 mm 0.24 in6.1 mm
11:38 PM 8.5°F-13.1°C 3.3°F-15.9°C 79% 2.0 mph S3.2 kmh S 5.0 mph8.0 kmh 30.50 in1032.8 mb 0.00 in0.0 mm 0.00 in0.0 mm 0.24 in6.1 mm
11:40 PM 8.4°F-13.1°C 3.5°F-15.8°C 80% 2.0 mph S3.2 kmh S 5.0 mph8.0 kmh 30.50 in1032.8 mb 0.00 in0.0 mm 0.00 in0.0 mm 0.24 in6.1 mm
11:42 PM 8.4°F-13.1°C 3.5°F-15.8°C 80% 2.0 mph S3.2 kmh S 5.0 mph8.0 kmh 30.50 in1032.8 mb 0.00 in0.0 mm 0.00 in0.0 mm 0.24 in6.1 mm
11:44 PM 8.3°F-13.2°C 3.4°F-15.9°C 80% 1.0 mph S1.6 kmh S 5.0 mph8.0 kmh 30.50 in1032.8 mb 0.00 in0.0 mm 0.00 in0.0 mm 0.24 in6.1 mm
11:46 PM 8.3°F-13.2°C 3.4°F-15.9°C 80% 1.0 mph S1.6 kmh S 5.0 mph8.0 kmh 30.50 in1032.8 mb 0.00 in0.0 mm 0.00 in0.0 mm 0.24 in6.1 mm
11:48 PM 8.3°F-13.2°C 3.4°F-15.9°C 80% 1.0 mph S1.6 kmh S 4.0 mph6.4 kmh 30.50 in1032.8 mb 0.00 in0.0 mm 0.00 in0.0 mm 0.24 in6.1 mm
11:50 PM 8.3°F-13.2°C 3.4°F-15.9°C 80% 1.0 mph S1.6 kmh S 3.0 mph4.8 kmh 30.50 in1032.8 mb 0.00 in0.0 mm 0.00 in0.0 mm 0.24 in6.1 mm
11:52 PM 8.2°F-13.2°C 3.3°F-15.9°C 80% 1.0 mph S1.6 kmh S 3.0 mph4.8 kmh 30.50 in1032.8 mb 0.00 in0.0 mm 0.00 in0.0 mm 0.24 in6.1 mm
11:54 PM 8.2°F-13.2°C 3.3°F-15.9°C 80% 1.0 mph S1.6 kmh S 3.0 mph4.8 kmh 30.50 in1032.8 mb 0.00 in0.0 mm 0.00 in0.0 mm 0.24 in6.1 mm
11:56 PM 8.2°F-13.2°C 3.3°F-15.9°C 80% 1.0 mph S1.6 kmh S 3.0 mph4.8 kmh 30.50 in1032.8 mb 0.00 in0.0 mm 0.00 in0.0 mm 0.24 in6.1 mm
11:58 PM 8.2°F-13.2°C 3.3°F-15.9°C 80% 2.0 mph S3.2 kmh S 3.0 mph4.8 kmh 30.50 in1032.8 mb 0.00 in0.0 mm 0.00 in0.0 mm 0.24 in6.1 mm